<?xml version="1.0" encoding="UTF-8" standalone="no" ?>
<gpx xmlns="http://www.topografix.com/GPX/1/1" xmlns:xsi="http://www.w3.org/2001/XMLSchema-instance" xsi:schemaLocation="http://www.topografix.com/GPX/1/1 http://www.topografix.com/GPX/1/1/gpx.xsd" version="1.1" creator="VisuGPX - https://www.visugpx.com">
  <metadata>
    <name>Saillagouse - Llo</name>
    <desc><![CDATA[de la ville au village]]></desc>
  </metadata>
  <trk>
    <name><![CDATA[2013-08-10-01]]></name>
    <trkseg>
      <trkpt lat="42.46124" lon="2.06301">
        <ele>1425</ele>
        <time>2013-08-10T08:42:59Z</time>
      </trkpt>
      <trkpt lat="42.46124" lon="2.06297">
        <ele>1426.3</ele>
        <time>2013-08-10T08:43:06Z</time>
      </trkpt>
      <trkpt lat="42.45604" lon="2.065">
        <ele>1425</ele>
        <time>2013-08-10T08:43:25Z</time>
      </trkpt>
      <trkpt lat="42.45594" lon="2.06493">
        <ele>1424</ele>
        <time>2013-08-10T08:43:57Z</time>
      </trkpt>
      <trkpt lat="42.45589" lon="2.06488">
        <ele>1424.7</ele>
        <time>2013-08-10T08:43:59Z</time>
      </trkpt>
      <trkpt lat="42.45587" lon="2.06486">
        <ele>1424.7</ele>
        <time>2013-08-10T08:44:00Z</time>
      </trkpt>
      <trkpt lat="42.45584" lon="2.06484">
        <ele>1424.8</ele>
        <time>2013-08-10T08:44:01Z</time>
      </trkpt>
      <trkpt lat="42.45582" lon="2.0648">
        <ele>1424.9</ele>
        <time>2013-08-10T08:44:02Z</time>
      </trkpt>
      <trkpt lat="42.4558" lon="2.06478">
        <ele>1424.9</ele>
        <time>2013-08-10T08:44:03Z</time>
      </trkpt>
      <trkpt lat="42.45577" lon="2.06476">
        <ele>1424.4</ele>
        <time>2013-08-10T08:44:04Z</time>
      </trkpt>
      <trkpt lat="42.45575" lon="2.06473">
        <ele>1424</ele>
        <time>2013-08-10T08:44:05Z</time>
      </trkpt>
      <trkpt lat="42.45573" lon="2.06471">
        <ele>1423.7</ele>
        <time>2013-08-10T08:44:06Z</time>
      </trkpt>
      <trkpt lat="42.45569" lon="2.06469">
        <ele>1423.4</ele>
        <time>2013-08-10T08:44:07Z</time>
      </trkpt>
      <trkpt lat="42.45566" lon="2.06467">
        <ele>1423.2</ele>
        <time>2013-08-10T08:44:08Z</time>
      </trkpt>
      <trkpt lat="42.45566" lon="2.06467">
        <ele>1423.2</ele>
        <time>2013-08-10T08:44:08Z</time>
      </trkpt>
      <trkpt lat="42.45564" lon="2.06465">
        <ele>1423.1</ele>
        <time>2013-08-10T08:44:09Z</time>
      </trkpt>
      <trkpt lat="42.45561" lon="2.06462">
        <ele>1422.8</ele>
        <time>2013-08-10T08:44:10Z</time>
      </trkpt>
      <trkpt lat="42.45558" lon="2.06459">
        <ele>1422.4</ele>
        <time>2013-08-10T08:44:12Z</time>
      </trkpt>
      <trkpt lat="42.45556" lon="2.06456">
        <ele>1421.8</ele>
        <time>2013-08-10T08:44:15Z</time>
      </trkpt>
      <trkpt lat="42.45553" lon="2.06453">
        <ele>1421.2</ele>
        <time>2013-08-10T08:44:17Z</time>
      </trkpt>
      <trkpt lat="42.45551" lon="2.06449">
        <ele>1420.8</ele>
        <time>2013-08-10T08:44:19Z</time>
      </trkpt>
      <trkpt lat="42.4555" lon="2.06446">
        <ele>1420.7</ele>
        <time>2013-08-10T08:44:21Z</time>
      </trkpt>
      <trkpt lat="42.45548" lon="2.06442">
        <ele>1420.6</ele>
        <time>2013-08-10T08:44:23Z</time>
      </trkpt>
      <trkpt lat="42.45545" lon="2.06437">
        <ele>1419.9</ele>
        <time>2013-08-10T08:44:26Z</time>
      </trkpt>
      <trkpt lat="42.45544" lon="2.06434">
        <ele>1419</ele>
        <time>2013-08-10T08:44:28Z</time>
      </trkpt>
      <trkpt lat="42.45542" lon="2.06429">
        <ele>1418.3</ele>
        <time>2013-08-10T08:44:31Z</time>
      </trkpt>
      <trkpt lat="42.4554" lon="2.06424">
        <ele>1418.1</ele>
        <time>2013-08-10T08:44:35Z</time>
      </trkpt>
      <trkpt lat="42.45538" lon="2.06419">
        <ele>1417.7</ele>
        <time>2013-08-10T08:44:38Z</time>
      </trkpt>
      <trkpt lat="42.45537" lon="2.06415">
        <ele>1417.2</ele>
        <time>2013-08-10T08:44:41Z</time>
      </trkpt>
      <trkpt lat="42.45535" lon="2.0641">
        <ele>1416.4</ele>
        <time>2013-08-10T08:44:44Z</time>
      </trkpt>
      <trkpt lat="42.45533" lon="2.06405">
        <ele>1416</ele>
        <time>2013-08-10T08:44:46Z</time>
      </trkpt>
      <trkpt lat="42.45531" lon="2.06401">
        <ele>1415.8</ele>
        <time>2013-08-10T08:44:48Z</time>
      </trkpt>
      <trkpt lat="42.45529" lon="2.06396">
        <ele>1415.6</ele>
        <time>2013-08-10T08:44:51Z</time>
      </trkpt>
      <trkpt lat="42.45527" lon="2.06392">
        <ele>1415.1</ele>
        <time>2013-08-10T08:44:53Z</time>
      </trkpt>
      <trkpt lat="42.45523" lon="2.06388">
        <ele>1414.7</ele>
        <time>2013-08-10T08:44:55Z</time>
      </trkpt>
      <trkpt lat="42.45521" lon="2.06384">
        <ele>1414.3</ele>
        <time>2013-08-10T08:44:57Z</time>
      </trkpt>
      <trkpt lat="42.45519" lon="2.0638">
        <ele>1413.3</ele>
        <time>2013-08-10T08:44:59Z</time>
      </trkpt>
      <trkpt lat="42.45516" lon="2.06375">
        <ele>1412.3</ele>
        <time>2013-08-10T08:45:01Z</time>
      </trkpt>
      <trkpt lat="42.45513" lon="2.06371">
        <ele>1411.7</ele>
        <time>2013-08-10T08:45:03Z</time>
      </trkpt>
      <trkpt lat="42.45512" lon="2.06366">
        <ele>1411</ele>
        <time>2013-08-10T08:45:05Z</time>
      </trkpt>
      <trkpt lat="42.45511" lon="2.06362">
        <ele>1410.3</ele>
        <time>2013-08-10T08:45:07Z</time>
      </trkpt>
      <trkpt lat="42.45511" lon="2.06357">
        <ele>1409.7</ele>
        <time>2013-08-10T08:45:10Z</time>
      </trkpt>
      <trkpt lat="42.45511" lon="2.06356">
        <ele>1409.6</ele>
        <time>2013-08-10T08:45:11Z</time>
      </trkpt>
      <trkpt lat="42.45512" lon="2.06347">
        <ele>1408.7</ele>
        <time>2013-08-10T08:45:16Z</time>
      </trkpt>
      <trkpt lat="42.4551" lon="2.06342">
        <ele>1408.1</ele>
        <time>2013-08-10T08:45:20Z</time>
      </trkpt>
      <trkpt lat="42.45508" lon="2.0634">
        <ele>1407.5</ele>
        <time>2013-08-10T08:45:21Z</time>
      </trkpt>
      <trkpt lat="42.45506" lon="2.06337">
        <ele>1407.1</ele>
        <time>2013-08-10T08:45:22Z</time>
      </trkpt>
      <trkpt lat="42.45504" lon="2.06336">
        <ele>1406.8</ele>
        <time>2013-08-10T08:45:23Z</time>
      </trkpt>
      <trkpt lat="42.45502" lon="2.06334">
        <ele>1406.6</ele>
        <time>2013-08-10T08:45:24Z</time>
      </trkpt>
      <trkpt lat="42.45498" lon="2.06331">
        <ele>1406.3</ele>
        <time>2013-08-10T08:45:26Z</time>
      </trkpt>
      <trkpt lat="42.45496" lon="2.06327">
        <ele>1405.7</ele>
        <time>2013-08-10T08:45:29Z</time>
      </trkpt>
      <trkpt lat="42.45493" lon="2.06323">
        <ele>1404.8</ele>
        <time>2013-08-10T08:45:32Z</time>
      </trkpt>
      <trkpt lat="42.45491" lon="2.06319">
        <ele>1403.7</ele>
        <time>2013-08-10T08:45:35Z</time>
      </trkpt>
      <trkpt lat="42.4549" lon="2.06315">
        <ele>1402.9</ele>
        <time>2013-08-10T08:45:37Z</time>
      </trkpt>
      <trkpt lat="42.45487" lon="2.06307">
        <ele>1400</ele>
        <time>2013-08-10T08:45:41Z</time>
      </trkpt>
      <trkpt lat="42.45485" lon="2.06303">
        <ele>1400.1</ele>
        <time>2013-08-10T08:45:44Z</time>
      </trkpt>
      <trkpt lat="42.45483" lon="2.06299">
        <ele>1399.2</ele>
        <time>2013-08-10T08:45:47Z</time>
      </trkpt>
      <trkpt lat="42.45482" lon="2.06294">
        <ele>1398.1</ele>
        <time>2013-08-10T08:45:50Z</time>
      </trkpt>
      <trkpt lat="42.45479" lon="2.06289">
        <ele>1396.9</ele>
        <time>2013-08-10T08:45:59Z</time>
      </trkpt>
      <trkpt lat="42.45476" lon="2.06288">
        <ele>1396.4</ele>
        <time>2013-08-10T08:46:06Z</time>
      </trkpt>
      <trkpt lat="42.45473" lon="2.06291">
        <ele>1396.7</ele>
        <time>2013-08-10T08:46:08Z</time>
      </trkpt>
      <trkpt lat="42.4547" lon="2.06293">
        <ele>1396.6</ele>
        <time>2013-08-10T08:46:10Z</time>
      </trkpt>
      <trkpt lat="42.45467" lon="2.06295">
        <ele>1396</ele>
        <time>2013-08-10T08:46:12Z</time>
      </trkpt>
      <trkpt lat="42.45465" lon="2.06296">
        <ele>1395.7</ele>
        <time>2013-08-10T08:46:13Z</time>
      </trkpt>
      <trkpt lat="42.4546" lon="2.06301">
        <ele>1394.9</ele>
        <time>2013-08-10T08:46:17Z</time>
      </trkpt>
      <trkpt lat="42.45457" lon="2.06305">
        <ele>1394.2</ele>
        <time>2013-08-10T08:46:21Z</time>
      </trkpt>
      <trkpt lat="42.45455" lon="2.06309">
        <ele>1392.4</ele>
        <time>2013-08-10T08:46:25Z</time>
      </trkpt>
      <trkpt lat="42.45454" lon="2.06304">
        <ele>1390.3</ele>
        <time>2013-08-10T08:46:33Z</time>
      </trkpt>
      <trkpt lat="42.45457" lon="2.063">
        <ele>1389.5</ele>
        <time>2013-08-10T08:46:36Z</time>
      </trkpt>
      <trkpt lat="42.4546" lon="2.06296">
        <ele>1388.8</ele>
        <time>2013-08-10T08:46:41Z</time>
      </trkpt>
      <trkpt lat="42.45459" lon="2.06291">
        <ele>1387.9</ele>
        <time>2013-08-10T08:46:46Z</time>
      </trkpt>
      <trkpt lat="42.45456" lon="2.06288">
        <ele>1387.1</ele>
        <time>2013-08-10T08:46:51Z</time>
      </trkpt>
      <trkpt lat="42.45457" lon="2.06282">
        <ele>1387</ele>
        <time>2013-08-10T08:46:54Z</time>
      </trkpt>
      <trkpt lat="42.45459" lon="2.06277">
        <ele>1386.3</ele>
        <time>2013-08-10T08:46:58Z</time>
      </trkpt>
      <trkpt lat="42.45461" lon="2.06272">
        <ele>1385.7</ele>
        <time>2013-08-10T08:47:01Z</time>
      </trkpt>
      <trkpt lat="42.45464" lon="2.06269">
        <ele>1385.4</ele>
        <time>2013-08-10T08:47:03Z</time>
      </trkpt>
      <trkpt lat="42.45467" lon="2.06265">
        <ele>1385.1</ele>
        <time>2013-08-10T08:47:05Z</time>
      </trkpt>
      <trkpt lat="42.45469" lon="2.06262">
        <ele>1384.8</ele>
        <time>2013-08-10T08:47:07Z</time>
      </trkpt>
      <trkpt lat="42.4547" lon="2.06257">
        <ele>1385</ele>
        <time>2013-08-10T08:47:10Z</time>
      </trkpt>
      <trkpt lat="42.45469" lon="2.06252">
        <ele>1385.6</ele>
        <time>2013-08-10T08:47:13Z</time>
      </trkpt>
      <trkpt lat="42.45469" lon="2.06251">
        <ele>1385.6</ele>
        <time>2013-08-10T08:47:14Z</time>
      </trkpt>
      <trkpt lat="42.45465" lon="2.06243">
        <ele>1385.2</ele>
        <time>2013-08-10T08:47:19Z</time>
      </trkpt>
      <trkpt lat="42.45463" lon="2.06239">
        <ele>1384.9</ele>
        <time>2013-08-10T08:47:21Z</time>
      </trkpt>
      <trkpt lat="42.45462" lon="2.06236">
        <ele>1385.1</ele>
        <time>2013-08-10T08:47:22Z</time>
      </trkpt>
      <trkpt lat="42.4546" lon="2.06233">
        <ele>1385.2</ele>
        <time>2013-08-10T08:47:23Z</time>
      </trkpt>
      <trkpt lat="42.45458" lon="2.0623">
        <ele>1385.3</ele>
        <time>2013-08-10T08:47:24Z</time>
      </trkpt>
      <trkpt lat="42.45457" lon="2.06228">
        <ele>1385.4</ele>
        <time>2013-08-10T08:47:25Z</time>
      </trkpt>
      <trkpt lat="42.45456" lon="2.06225">
        <ele>1385.3</ele>
        <time>2013-08-10T08:47:26Z</time>
      </trkpt>
      <trkpt lat="42.45455" lon="2.0622">
        <ele>1385.2</ele>
        <time>2013-08-10T08:47:28Z</time>
      </trkpt>
      <trkpt lat="42.45457" lon="2.06214">
        <ele>1384.7</ele>
        <time>2013-08-10T08:47:30Z</time>
      </trkpt>
      <trkpt lat="42.45458" lon="2.06209">
        <ele>1384.4</ele>
        <time>2013-08-10T08:47:32Z</time>
      </trkpt>
      <trkpt lat="42.45459" lon="2.06204">
        <ele>1384.1</ele>
        <time>2013-08-10T08:47:34Z</time>
      </trkpt>
      <trkpt lat="42.45459" lon="2.06199">
        <ele>1384.1</ele>
        <time>2013-08-10T08:47:39Z</time>
      </trkpt>
      <trkpt lat="42.45459" lon="2.06195">
        <ele>1384</ele>
        <time>2013-08-10T08:47:41Z</time>
      </trkpt>
      <trkpt lat="42.4546" lon="2.0619">
        <ele>1383.6</ele>
        <time>2013-08-10T08:47:43Z</time>
      </trkpt>
      <trkpt lat="42.45459" lon="2.06186">
        <ele>1383.2</ele>
        <time>2013-08-10T08:47:45Z</time>
      </trkpt>
      <trkpt lat="42.45458" lon="2.06182">
        <ele>1382.9</ele>
        <time>2013-08-10T08:47:47Z</time>
      </trkpt>
      <trkpt lat="42.45455" lon="2.06179">
        <ele>1381.6</ele>
        <time>2013-08-10T08:47:49Z</time>
      </trkpt>
      <trkpt lat="42.45452" lon="2.06175">
        <ele>1381</ele>
        <time>2013-08-10T08:47:51Z</time>
      </trkpt>
      <trkpt lat="42.45449" lon="2.06171">
        <ele>1380.9</ele>
        <time>2013-08-10T08:47:53Z</time>
      </trkpt>
      <trkpt lat="42.45447" lon="2.06168">
        <ele>1380.4</ele>
        <time>2013-08-10T08:47:55Z</time>
      </trkpt>
      <trkpt lat="42.45444" lon="2.06164">
        <ele>1380.1</ele>
        <time>2013-08-10T08:47:58Z</time>
      </trkpt>
      <trkpt lat="42.45444" lon="2.06158">
        <ele>1379.9</ele>
        <time>2013-08-10T08:48:01Z</time>
      </trkpt>
      <trkpt lat="42.45443" lon="2.06153">
        <ele>1379.6</ele>
        <time>2013-08-10T08:48:04Z</time>
      </trkpt>
      <trkpt lat="42.45441" lon="2.06148">
        <ele>1379.3</ele>
        <time>2013-08-10T08:48:07Z</time>
      </trkpt>
      <trkpt lat="42.45439" lon="2.06143">
        <ele>1378.9</ele>
        <time>2013-08-10T08:48:11Z</time>
      </trkpt>
      <trkpt lat="42.45436" lon="2.06139">
        <ele>1378.7</ele>
        <time>2013-08-10T08:48:14Z</time>
      </trkpt>
      <trkpt lat="42.45435" lon="2.06138">
        <ele>1378.7</ele>
        <time>2013-08-10T08:48:15Z</time>
      </trkpt>
      <trkpt lat="42.45431" lon="2.06131">
        <ele>1376.6</ele>
        <time>2013-08-10T08:48:20Z</time>
      </trkpt>
      <trkpt lat="42.45428" lon="2.06128">
        <ele>1376.4</ele>
        <time>2013-08-10T08:48:22Z</time>
      </trkpt>
      <trkpt lat="42.45426" lon="2.06124">
        <ele>1376</ele>
        <time>2013-08-10T08:48:24Z</time>
      </trkpt>
      <trkpt lat="42.45425" lon="2.06119">
        <ele>1375.7</ele>
        <time>2013-08-10T08:48:28Z</time>
      </trkpt>
      <trkpt lat="42.45427" lon="2.06115">
        <ele>1376</ele>
        <time>2013-08-10T08:48:31Z</time>
      </trkpt>
      <trkpt lat="42.4543" lon="2.0611">
        <ele>1375.7</ele>
        <time>2013-08-10T08:48:34Z</time>
      </trkpt>
      <trkpt lat="42.45433" lon="2.06106">
        <ele>1376</ele>
        <time>2013-08-10T08:48:37Z</time>
      </trkpt>
      <trkpt lat="42.45435" lon="2.06103">
        <ele>1375.8</ele>
        <time>2013-08-10T08:48:40Z</time>
      </trkpt>
      <trkpt lat="42.45438" lon="2.061">
        <ele>1376</ele>
        <time>2013-08-10T08:48:42Z</time>
      </trkpt>
      <trkpt lat="42.45441" lon="2.06097">
        <ele>1376.4</ele>
        <time>2013-08-10T08:48:45Z</time>
      </trkpt>
      <trkpt lat="42.45445" lon="2.06096">
        <ele>1376.6</ele>
        <time>2013-08-10T08:48:48Z</time>
      </trkpt>
      <trkpt lat="42.45449" lon="2.06097">
        <ele>1376.8</ele>
        <time>2013-08-10T08:48:52Z</time>
      </trkpt>
      <trkpt lat="42.45452" lon="2.06097">
        <ele>1377.1</ele>
        <time>2013-08-10T08:48:54Z</time>
      </trkpt>
      <trkpt lat="42.45456" lon="2.06098">
        <ele>1376.8</ele>
        <time>2013-08-10T08:48:57Z</time>
      </trkpt>
      <trkpt lat="42.45458" lon="2.06095">
        <ele>1376.6</ele>
        <time>2013-08-10T08:48:59Z</time>
      </trkpt>
      <trkpt lat="42.45459" lon="2.0609">
        <ele>1376.9</ele>
        <time>2013-08-10T08:49:02Z</time>
      </trkpt>
      <trkpt lat="42.45459" lon="2.06085">
        <ele>1376.7</ele>
        <time>2013-08-10T08:49:05Z</time>
      </trkpt>
      <trkpt lat="42.4546" lon="2.0608">
        <ele>1376.2</ele>
        <time>2013-08-10T08:49:07Z</time>
      </trkpt>
      <trkpt lat="42.45461" lon="2.06078">
        <ele>1375.9</ele>
        <time>2013-08-10T08:49:08Z</time>
      </trkpt>
      <trkpt lat="42.45463" lon="2.06076">
        <ele>1375.6</ele>
        <time>2013-08-10T08:49:09Z</time>
      </trkpt>
      <trkpt lat="42.45465" lon="2.06071">
        <ele>1375</ele>
        <time>2013-08-10T08:49:11Z</time>
      </trkpt>
      <trkpt lat="42.45466" lon="2.06066">
        <ele>1374.6</ele>
        <time>2013-08-10T08:49:13Z</time>
      </trkpt>
      <trkpt lat="42.45465" lon="2.06062">
        <ele>1375.1</ele>
        <time>2013-08-10T08:49:15Z</time>
      </trkpt>
      <trkpt lat="42.45466" lon="2.0606">
        <ele>1375.2</ele>
        <time>2013-08-10T08:49:16Z</time>
      </trkpt>
      <trkpt lat="42.45468" lon="2.06055">
        <ele>1374.6</ele>
        <time>2013-08-10T08:49:18Z</time>
      </trkpt>
      <trkpt lat="42.45467" lon="2.06049">
        <ele>1374</ele>
        <time>2013-08-10T08:49:21Z</time>
      </trkpt>
      <trkpt lat="42.45469" lon="2.06044">
        <ele>1373.6</ele>
        <time>2013-08-10T08:49:23Z</time>
      </trkpt>
      <trkpt lat="42.45471" lon="2.0604">
        <ele>1373</ele>
        <time>2013-08-10T08:49:25Z</time>
      </trkpt>
      <trkpt lat="42.45471" lon="2.06036">
        <ele>1372.7</ele>
        <time>2013-08-10T08:49:27Z</time>
      </trkpt>
      <trkpt lat="42.4547" lon="2.06031">
        <ele>1372.6</ele>
        <time>2013-08-10T08:49:29Z</time>
      </trkpt>
      <trkpt lat="42.4547" lon="2.06026">
        <ele>1372.6</ele>
        <time>2013-08-10T08:49:31Z</time>
      </trkpt>
      <trkpt lat="42.4547" lon="2.0602">
        <ele>1372.3</ele>
        <time>2013-08-10T08:49:33Z</time>
      </trkpt>
      <trkpt lat="42.45469" lon="2.06015">
        <ele>1371.8</ele>
        <time>2013-08-10T08:49:36Z</time>
      </trkpt>
      <trkpt lat="42.45468" lon="2.0601">
        <ele>1371.5</ele>
        <time>2013-08-10T08:49:39Z</time>
      </trkpt>
      <trkpt lat="42.45466" lon="2.06007">
        <ele>1370.8</ele>
        <time>2013-08-10T08:49:41Z</time>
      </trkpt>
      <trkpt lat="42.45465" lon="2.06003">
        <ele>1370.4</ele>
        <time>2013-08-10T08:49:43Z</time>
      </trkpt>
      <trkpt lat="42.45464" lon="2.06001">
        <ele>1370.3</ele>
        <time>2013-08-10T08:49:44Z</time>
      </trkpt>
      <trkpt lat="42.45462" lon="2.05995">
        <ele>1370.2</ele>
        <time>2013-08-10T08:49:46Z</time>
      </trkpt>
      <trkpt lat="42.45461" lon="2.05991">
        <ele>1370.3</ele>
        <time>2013-08-10T08:49:48Z</time>
      </trkpt>
      <trkpt lat="42.4546" lon="2.05987">
        <ele>1369.8</ele>
        <time>2013-08-10T08:49:50Z</time>
      </trkpt>
      <trkpt lat="42.45461" lon="2.05982">
        <ele>1369.9</ele>
        <time>2013-08-10T08:49:53Z</time>
      </trkpt>
      <trkpt lat="42.45461" lon="2.05977">
        <ele>1369.6</ele>
        <time>2013-08-10T08:49:56Z</time>
      </trkpt>
      <trkpt lat="42.45462" lon="2.05973">
        <ele>1369.1</ele>
        <time>2013-08-10T08:49:58Z</time>
      </trkpt>
      <trkpt lat="42.45465" lon="2.05968">
        <ele>1369.1</ele>
        <time>2013-08-10T08:50:01Z</time>
      </trkpt>
      <trkpt lat="42.45467" lon="2.05964">
        <ele>1368.1</ele>
        <time>2013-08-10T08:50:04Z</time>
      </trkpt>
      <trkpt lat="42.45469" lon="2.05959">
        <ele>1368</ele>
        <time>2013-08-10T08:50:07Z</time>
      </trkpt>
      <trkpt lat="42.45472" lon="2.05956">
        <ele>1367.1</ele>
        <time>2013-08-10T08:50:10Z</time>
      </trkpt>
      <trkpt lat="42.45474" lon="2.05951">
        <ele>1366.8</ele>
        <time>2013-08-10T08:50:13Z</time>
      </trkpt>
      <trkpt lat="42.45477" lon="2.05948">
        <ele>1366.4</ele>
        <time>2013-08-10T08:50:16Z</time>
      </trkpt>
      <trkpt lat="42.45477" lon="2.05946">
        <ele>1366.2</ele>
        <time>2013-08-10T08:50:17Z</time>
      </trkpt>
      <trkpt lat="42.4548" lon="2.05938">
        <ele>1365.5</ele>
        <time>2013-08-10T08:50:22Z</time>
      </trkpt>
      <trkpt lat="42.45482" lon="2.05933">
        <ele>1365.7</ele>
        <time>2013-08-10T08:50:25Z</time>
      </trkpt>
      <trkpt lat="42.45484" lon="2.05929">
        <ele>1365.8</ele>
        <time>2013-08-10T08:50:28Z</time>
      </trkpt>
      <trkpt lat="42.45486" lon="2.05923">
        <ele>1365.5</ele>
        <time>2013-08-10T08:50:31Z</time>
      </trkpt>
      <trkpt lat="42.45487" lon="2.0592">
        <ele>1365.1</ele>
        <time>2013-08-10T08:50:33Z</time>
      </trkpt>
      <trkpt lat="42.45488" lon="2.05916">
        <ele>1364.8</ele>
        <time>2013-08-10T08:50:35Z</time>
      </trkpt>
      <trkpt lat="42.45489" lon="2.05911">
        <ele>1364.2</ele>
        <time>2013-08-10T08:50:37Z</time>
      </trkpt>
      <trkpt lat="42.45489" lon="2.05906">
        <ele>1363.5</ele>
        <time>2013-08-10T08:50:39Z</time>
      </trkpt>
      <trkpt lat="42.4549" lon="2.05901">
        <ele>1364.1</ele>
        <time>2013-08-10T08:50:41Z</time>
      </trkpt>
      <trkpt lat="42.45491" lon="2.05897">
        <ele>1364</ele>
        <time>2013-08-10T08:50:43Z</time>
      </trkpt>
      <trkpt lat="42.45492" lon="2.05893">
        <ele>1363.6</ele>
        <time>2013-08-10T08:50:45Z</time>
      </trkpt>
      <trkpt lat="42.45495" lon="2.05889">
        <ele>1363.2</ele>
        <time>2013-08-10T08:50:48Z</time>
      </trkpt>
      <trkpt lat="42.45496" lon="2.05884">
        <ele>1362.7</ele>
        <time>2013-08-10T08:50:50Z</time>
      </trkpt>
      <trkpt lat="42.45496" lon="2.05881">
        <ele>1362.1</ele>
        <time>2013-08-10T08:50:52Z</time>
      </trkpt>
      <trkpt lat="42.45498" lon="2.05877">
        <ele>1361.9</ele>
        <time>2013-08-10T08:50:54Z</time>
      </trkpt>
      <trkpt lat="42.45501" lon="2.05873">
        <ele>1361.8</ele>
        <time>2013-08-10T08:50:57Z</time>
      </trkpt>
      <trkpt lat="42.45503" lon="2.05868">
        <ele>1361.9</ele>
        <time>2013-08-10T08:50:59Z</time>
      </trkpt>
      <trkpt lat="42.45505" lon="2.05864">
        <ele>1362.2</ele>
        <time>2013-08-10T08:51:01Z</time>
      </trkpt>
      <trkpt lat="42.45506" lon="2.05858">
        <ele>1361.8</ele>
        <time>2013-08-10T08:51:03Z</time>
      </trkpt>
      <trkpt lat="42.45507" lon="2.05853">
        <ele>1361.2</ele>
        <time>2013-08-10T08:51:05Z</time>
      </trkpt>
      <trkpt lat="42.45508" lon="2.05849">
        <ele>1361.2</ele>
        <time>2013-08-10T08:51:07Z</time>
      </trkpt>
      <trkpt lat="42.4551" lon="2.05844">
        <ele>1360.6</ele>
        <time>2013-08-10T08:51:09Z</time>
      </trkpt>
      <trkpt lat="42.45511" lon="2.05838">
        <ele>1360</ele>
        <time>2013-08-10T08:51:11Z</time>
      </trkpt>
      <trkpt lat="42.45511" lon="2.05835">
        <ele>1359.7</ele>
        <time>2013-08-10T08:51:12Z</time>
      </trkpt>
      <trkpt lat="42.45512" lon="2.05832">
        <ele>1359.6</ele>
        <time>2013-08-10T08:51:13Z</time>
      </trkpt>
      <trkpt lat="42.45513" lon="2.05829">
        <ele>1359.5</ele>
        <time>2013-08-10T08:51:14Z</time>
      </trkpt>
      <trkpt lat="42.45514" lon="2.05824">
        <ele>1359.2</ele>
        <time>2013-08-10T08:51:16Z</time>
      </trkpt>
      <trkpt lat="42.45516" lon="2.05818">
        <ele>1359.1</ele>
        <time>2013-08-10T08:51:18Z</time>
      </trkpt>
      <trkpt lat="42.45516" lon="2.05816">
        <ele>1359</ele>
        <time>2013-08-10T08:51:19Z</time>
      </trkpt>
      <trkpt lat="42.45517" lon="2.0581">
        <ele>1358.6</ele>
        <time>2013-08-10T08:51:22Z</time>
      </trkpt>
      <trkpt lat="42.45518" lon="2.05804">
        <ele>1357.4</ele>
        <time>2013-08-10T08:51:25Z</time>
      </trkpt>
      <trkpt lat="42.45519" lon="2.05799">
        <ele>1356.5</ele>
        <time>2013-08-10T08:51:28Z</time>
      </trkpt>
      <trkpt lat="42.45521" lon="2.05793">
        <ele>1356.2</ele>
        <time>2013-08-10T08:51:31Z</time>
      </trkpt>
      <trkpt lat="42.45521" lon="2.05789">
        <ele>1356.1</ele>
        <time>2013-08-10T08:51:33Z</time>
      </trkpt>
      <trkpt lat="42.45523" lon="2.05785">
        <ele>1356.4</ele>
        <time>2013-08-10T08:51:35Z</time>
      </trkpt>
      <trkpt lat="42.45524" lon="2.05781">
        <ele>1356.8</ele>
        <time>2013-08-10T08:51:37Z</time>
      </trkpt>
      <trkpt lat="42.45525" lon="2.05777">
        <ele>1356.7</ele>
        <time>2013-08-10T08:51:39Z</time>
      </trkpt>
      <trkpt lat="42.45527" lon="2.05773">
        <ele>1356.2</ele>
        <time>2013-08-10T08:51:41Z</time>
      </trkpt>
      <trkpt lat="42.45529" lon="2.05768">
        <ele>1355.6</ele>
        <time>2013-08-10T08:51:44Z</time>
      </trkpt>
      <trkpt lat="42.45531" lon="2.05763">
        <ele>1355.6</ele>
        <time>2013-08-10T08:51:47Z</time>
      </trkpt>
      <trkpt lat="42.45534" lon="2.05758">
        <ele>1356</ele>
        <time>2013-08-10T08:51:50Z</time>
      </trkpt>
      <trkpt lat="42.45536" lon="2.05754">
        <ele>1355.3</ele>
        <time>2013-08-10T08:51:53Z</time>
      </trkpt>
      <trkpt lat="42.45538" lon="2.05749">
        <ele>1354.7</ele>
        <time>2013-08-10T08:51:56Z</time>
      </trkpt>
      <trkpt lat="42.4554" lon="2.05745">
        <ele>1355.1</ele>
        <time>2013-08-10T08:51:58Z</time>
      </trkpt>
      <trkpt lat="42.45541" lon="2.05739">
        <ele>1354.8</ele>
        <time>2013-08-10T08:52:01Z</time>
      </trkpt>
      <trkpt lat="42.45543" lon="2.05736">
        <ele>1354.2</ele>
        <time>2013-08-10T08:52:03Z</time>
      </trkpt>
      <trkpt lat="42.45544" lon="2.05732">
        <ele>1353.6</ele>
        <time>2013-08-10T08:52:05Z</time>
      </trkpt>
      <trkpt lat="42.45546" lon="2.05729">
        <ele>1353.4</ele>
        <time>2013-08-10T08:52:07Z</time>
      </trkpt>
      <trkpt lat="42.4555" lon="2.05725">
        <ele>1353.2</ele>
        <time>2013-08-10T08:52:10Z</time>
      </trkpt>
      <trkpt lat="42.45552" lon="2.05723">
        <ele>1353.1</ele>
        <time>2013-08-10T08:52:12Z</time>
      </trkpt>
      <trkpt lat="42.45556" lon="2.05719">
        <ele>1353.3</ele>
        <time>2013-08-10T08:52:15Z</time>
      </trkpt>
      <trkpt lat="42.45558" lon="2.05716">
        <ele>1352.5</ele>
        <time>2013-08-10T08:52:18Z</time>
      </trkpt>
      <trkpt lat="42.4556" lon="2.05711">
        <ele>1351.7</ele>
        <time>2013-08-10T08:52:21Z</time>
      </trkpt>
      <trkpt lat="42.45561" lon="2.05709">
        <ele>1351.5</ele>
        <time>2013-08-10T08:52:22Z</time>
      </trkpt>
      <trkpt lat="42.45563" lon="2.05702">
        <ele>1351.1</ele>
        <time>2013-08-10T08:52:25Z</time>
      </trkpt>
      <trkpt lat="42.45566" lon="2.05699">
        <ele>1351.1</ele>
        <time>2013-08-10T08:52:27Z</time>
      </trkpt>
      <trkpt lat="42.45568" lon="2.05695">
        <ele>1350.9</ele>
        <time>2013-08-10T08:52:29Z</time>
      </trkpt>
      <trkpt lat="42.4557" lon="2.0569">
        <ele>1350.1</ele>
        <time>2013-08-10T08:52:32Z</time>
      </trkpt>
      <trkpt lat="42.45572" lon="2.05686">
        <ele>1349.5</ele>
        <time>2013-08-10T08:52:34Z</time>
      </trkpt>
      <trkpt lat="42.45572" lon="2.05681">
        <ele>1349.3</ele>
        <time>2013-08-10T08:52:36Z</time>
      </trkpt>
      <trkpt lat="42.45574" lon="2.05677">
        <ele>1349.1</ele>
        <time>2013-08-10T08:52:38Z</time>
      </trkpt>
      <trkpt lat="42.45575" lon="2.05673">
        <ele>1348.8</ele>
        <time>2013-08-10T08:52:40Z</time>
      </trkpt>
      <trkpt lat="42.45578" lon="2.05668">
        <ele>1348.7</ele>
        <time>2013-08-10T08:52:42Z</time>
      </trkpt>
      <trkpt lat="42.45579" lon="2.05665">
        <ele>1348.6</ele>
        <time>2013-08-10T08:52:43Z</time>
      </trkpt>
      <trkpt lat="42.45582" lon="2.0566">
        <ele>1348.6</ele>
        <time>2013-08-10T08:52:45Z</time>
      </trkpt>
      <trkpt lat="42.45584" lon="2.05655">
        <ele>1348.5</ele>
        <time>2013-08-10T08:52:47Z</time>
      </trkpt>
      <trkpt lat="42.45586" lon="2.0565">
        <ele>1348.6</ele>
        <time>2013-08-10T08:52:49Z</time>
      </trkpt>
      <trkpt lat="42.45587" lon="2.05644">
        <ele>1348.5</ele>
        <time>2013-08-10T08:52:51Z</time>
      </trkpt>
      <trkpt lat="42.45588" lon="2.05639">
        <ele>1348.3</ele>
        <time>2013-08-10T08:52:53Z</time>
      </trkpt>
      <trkpt lat="42.45589" lon="2.05635">
        <ele>1348</ele>
        <time>2013-08-10T08:52:55Z</time>
      </trkpt>
      <trkpt lat="42.45592" lon="2.05631">
        <ele>1347.9</ele>
        <time>2013-08-10T08:52:57Z</time>
      </trkpt>
      <trkpt lat="42.45593" lon="2.05626">
        <ele>1347.3</ele>
        <time>2013-08-10T08:52:59Z</time>
      </trkpt>
      <trkpt lat="42.45593" lon="2.05622">
        <ele>1347.1</ele>
        <time>2013-08-10T08:53:01Z</time>
      </trkpt>
      <trkpt lat="42.45593" lon="2.05616">
        <ele>1346.6</ele>
        <time>2013-08-10T08:53:05Z</time>
      </trkpt>
      <trkpt lat="42.45595" lon="2.0561">
        <ele>1346.2</ele>
        <time>2013-08-10T08:53:10Z</time>
      </trkpt>
      <trkpt lat="42.45595" lon="2.05606">
        <ele>1346.1</ele>
        <time>2013-08-10T08:53:12Z</time>
      </trkpt>
      <trkpt lat="42.45596" lon="2.05601">
        <ele>1345.6</ele>
        <time>2013-08-10T08:53:15Z</time>
      </trkpt>
      <trkpt lat="42.45596" lon="2.05596">
        <ele>1345.2</ele>
        <time>2013-08-10T08:53:18Z</time>
      </trkpt>
      <trkpt lat="42.45597" lon="2.05591">
        <ele>1345</ele>
        <time>2013-08-10T08:53:21Z</time>
      </trkpt>
      <trkpt lat="42.45597" lon="2.05585">
        <ele>1344.3</ele>
        <time>2013-08-10T08:53:24Z</time>
      </trkpt>
      <trkpt lat="42.45597" lon="2.05583">
        <ele>1344.1</ele>
        <time>2013-08-10T08:53:25Z</time>
      </trkpt>
      <trkpt lat="42.45598" lon="2.05577">
        <ele>1344.3</ele>
        <time>2013-08-10T08:53:28Z</time>
      </trkpt>
      <trkpt lat="42.45599" lon="2.05571">
        <ele>1343.6</ele>
        <time>2013-08-10T08:53:31Z</time>
      </trkpt>
      <trkpt lat="42.456" lon="2.05566">
        <ele>1343.6</ele>
        <time>2013-08-10T08:53:34Z</time>
      </trkpt>
      <trkpt lat="42.45602" lon="2.05563">
        <ele>1343.4</ele>
        <time>2013-08-10T08:53:36Z</time>
      </trkpt>
      <trkpt lat="42.45604" lon="2.0556">
        <ele>1343.3</ele>
        <time>2013-08-10T08:53:38Z</time>
      </trkpt>
      <trkpt lat="42.45606" lon="2.05557">
        <ele>1342.9</ele>
        <time>2013-08-10T08:53:40Z</time>
      </trkpt>
      <trkpt lat="42.45609" lon="2.05553">
        <ele>1342</ele>
        <time>2013-08-10T08:53:43Z</time>
      </trkpt>
      <trkpt lat="42.45611" lon="2.05548">
        <ele>1341.6</ele>
        <time>2013-08-10T08:53:46Z</time>
      </trkpt>
      <trkpt lat="42.45614" lon="2.05546">
        <ele>1341.6</ele>
        <time>2013-08-10T08:53:48Z</time>
      </trkpt>
      <trkpt lat="42.45617" lon="2.05544">
        <ele>1341.8</ele>
        <time>2013-08-10T08:53:50Z</time>
      </trkpt>
      <trkpt lat="42.45621" lon="2.05541">
        <ele>1341.3</ele>
        <time>2013-08-10T08:53:53Z</time>
      </trkpt>
      <trkpt lat="42.45625" lon="2.0554">
        <ele>1341.1</ele>
        <time>2013-08-10T08:53:56Z</time>
      </trkpt>
      <trkpt lat="42.45628" lon="2.05539">
        <ele>1341.1</ele>
        <time>2013-08-10T08:53:58Z</time>
      </trkpt>
      <trkpt lat="42.45632" lon="2.05539">
        <ele>1341</ele>
        <time>2013-08-10T08:54:01Z</time>
      </trkpt>
      <trkpt lat="42.45636" lon="2.05541">
        <ele>1340.6</ele>
        <time>2013-08-10T08:54:04Z</time>
      </trkpt>
      <trkpt lat="42.4564" lon="2.05543">
        <ele>1339.8</ele>
        <time>2013-08-10T08:54:07Z</time>
      </trkpt>
      <trkpt lat="42.45643" lon="2.05544">
        <ele>1339.6</ele>
        <time>2013-08-10T08:54:10Z</time>
      </trkpt>
      <trkpt lat="42.45647" lon="2.05546">
        <ele>1339.1</ele>
        <time>2013-08-10T08:54:12Z</time>
      </trkpt>
      <trkpt lat="42.4565" lon="2.05547">
        <ele>1339.2</ele>
        <time>2013-08-10T08:54:15Z</time>
      </trkpt>
      <trkpt lat="42.45653" lon="2.05548">
        <ele>1339.2</ele>
        <time>2013-08-10T08:54:17Z</time>
      </trkpt>
      <trkpt lat="42.45656" lon="2.05549">
        <ele>1339.1</ele>
        <time>2013-08-10T08:54:19Z</time>
      </trkpt>
      <trkpt lat="42.4566" lon="2.0555">
        <ele>1339.2</ele>
        <time>2013-08-10T08:54:21Z</time>
      </trkpt>
      <trkpt lat="42.45663" lon="2.05549">
        <ele>1339.2</ele>
        <time>2013-08-10T08:54:23Z</time>
      </trkpt>
      <trkpt lat="42.45667" lon="2.05547">
        <ele>1338.9</ele>
        <time>2013-08-10T08:54:25Z</time>
      </trkpt>
      <trkpt lat="42.45668" lon="2.05547">
        <ele>1338.8</ele>
        <time>2013-08-10T08:54:26Z</time>
      </trkpt>
      <trkpt lat="42.45671" lon="2.05539">
        <ele>1338</ele>
        <time>2013-08-10T08:54:35Z</time>
      </trkpt>
      <trkpt lat="42.45674" lon="2.05535">
        <ele>1338.9</ele>
        <time>2013-08-10T08:54:38Z</time>
      </trkpt>
      <trkpt lat="42.45676" lon="2.05532">
        <ele>1338.4</ele>
        <time>2013-08-10T08:54:40Z</time>
      </trkpt>
      <trkpt lat="42.45676" lon="2.05528">
        <ele>1337.6</ele>
        <time>2013-08-10T08:54:42Z</time>
      </trkpt>
      <trkpt lat="42.45675" lon="2.05524">
        <ele>1337.5</ele>
        <time>2013-08-10T08:54:44Z</time>
      </trkpt>
      <trkpt lat="42.45673" lon="2.05519">
        <ele>1337.5</ele>
        <time>2013-08-10T08:54:46Z</time>
      </trkpt>
      <trkpt lat="42.4567" lon="2.05514">
        <ele>1337.6</ele>
        <time>2013-08-10T08:54:48Z</time>
      </trkpt>
      <trkpt lat="42.45668" lon="2.05509">
        <ele>1337.7</ele>
        <time>2013-08-10T08:54:50Z</time>
      </trkpt>
      <trkpt lat="42.45665" lon="2.05505">
        <ele>1337.7</ele>
        <time>2013-08-10T08:54:52Z</time>
      </trkpt>
      <trkpt lat="42.45663" lon="2.05502">
        <ele>1337.5</ele>
        <time>2013-08-10T08:54:54Z</time>
      </trkpt>
      <trkpt lat="42.45661" lon="2.05498">
        <ele>1337.2</ele>
        <time>2013-08-10T08:54:56Z</time>
      </trkpt>
      <trkpt lat="42.45659" lon="2.05494">
        <ele>1336.9</ele>
        <time>2013-08-10T08:54:58Z</time>
      </trkpt>
      <trkpt lat="42.45656" lon="2.05491">
        <ele>1336.2</ele>
        <time>2013-08-10T08:55:00Z</time>
      </trkpt>
      <trkpt lat="42.45653" lon="2.05487">
        <ele>1335.9</ele>
        <time>2013-08-10T08:55:02Z</time>
      </trkpt>
      <trkpt lat="42.4565" lon="2.05483">
        <ele>1335.8</ele>
        <time>2013-08-10T08:55:04Z</time>
      </trkpt>
      <trkpt lat="42.45647" lon="2.0548">
        <ele>1335.7</ele>
        <time>2013-08-10T08:55:06Z</time>
      </trkpt>
      <trkpt lat="42.45644" lon="2.05477">
        <ele>1335.5</ele>
        <time>2013-08-10T08:55:08Z</time>
      </trkpt>
      <trkpt lat="42.45641" lon="2.05473">
        <ele>1335.2</ele>
        <time>2013-08-10T08:55:10Z</time>
      </trkpt>
      <trkpt lat="42.45639" lon="2.0547">
        <ele>1335</ele>
        <time>2013-08-10T08:55:12Z</time>
      </trkpt>
      <trkpt lat="42.45637" lon="2.05466">
        <ele>1334.8</ele>
        <time>2013-08-10T08:55:14Z</time>
      </trkpt>
      <trkpt lat="42.45636" lon="2.05462">
        <ele>1334.8</ele>
        <time>2013-08-10T08:55:16Z</time>
      </trkpt>
      <trkpt lat="42.45635" lon="2.05456">
        <ele>1334.6</ele>
        <time>2013-08-10T08:55:19Z</time>
      </trkpt>
      <trkpt lat="42.45633" lon="2.05453">
        <ele>1333.8</ele>
        <time>2013-08-10T08:55:21Z</time>
      </trkpt>
      <trkpt lat="42.45632" lon="2.05448">
        <ele>1332.7</ele>
        <time>2013-08-10T08:55:24Z</time>
      </trkpt>
      <trkpt lat="42.4563" lon="2.05443">
        <ele>1332.5</ele>
        <time>2013-08-10T08:55:27Z</time>
      </trkpt>
      <trkpt lat="42.45629" lon="2.05442">
        <ele>1332.1</ele>
        <time>2013-08-10T08:55:28Z</time>
      </trkpt>
      <trkpt lat="42.45628" lon="2.05434">
        <ele>1331.6</ele>
        <time>2013-08-10T08:55:33Z</time>
      </trkpt>
      <trkpt lat="42.45626" lon="2.0543">
        <ele>1331.6</ele>
        <time>2013-08-10T08:55:35Z</time>
      </trkpt>
      <trkpt lat="42.45625" lon="2.05424">
        <ele>1331.5</ele>
        <time>2013-08-10T08:55:38Z</time>
      </trkpt>
      <trkpt lat="42.45624" lon="2.05419">
        <ele>1331.4</ele>
        <time>2013-08-10T08:55:41Z</time>
      </trkpt>
      <trkpt lat="42.45623" lon="2.05415">
        <ele>1331.4</ele>
        <time>2013-08-10T08:55:43Z</time>
      </trkpt>
      <trkpt lat="42.45622" lon="2.0541">
        <ele>1330.7</ele>
        <time>2013-08-10T08:55:46Z</time>
      </trkpt>
      <trkpt lat="42.45621" lon="2.05405">
        <ele>1329.9</ele>
        <time>2013-08-10T08:55:49Z</time>
      </trkpt>
      <trkpt lat="42.4562" lon="2.05402">
        <ele>1329.8</ele>
        <time>2013-08-10T08:55:51Z</time>
      </trkpt>
      <trkpt lat="42.45619" lon="2.05398">
        <ele>1329.6</ele>
        <time>2013-08-10T08:55:53Z</time>
      </trkpt>
      <trkpt lat="42.45618" lon="2.05393">
        <ele>1329.4</ele>
        <time>2013-08-10T08:55:55Z</time>
      </trkpt>
      <trkpt lat="42.45617" lon="2.05389">
        <ele>1329.4</ele>
        <time>2013-08-10T08:55:57Z</time>
      </trkpt>
      <trkpt lat="42.45615" lon="2.05385">
        <ele>1329.4</ele>
        <time>2013-08-10T08:55:59Z</time>
      </trkpt>
      <trkpt lat="42.45614" lon="2.05381">
        <ele>1328.9</ele>
        <time>2013-08-10T08:56:01Z</time>
      </trkpt>
      <trkpt lat="42.45613" lon="2.05377">
        <ele>1328.3</ele>
        <time>2013-08-10T08:56:03Z</time>
      </trkpt>
      <trkpt lat="42.45613" lon="2.05372">
        <ele>1327.8</ele>
        <time>2013-08-10T08:56:05Z</time>
      </trkpt>
      <trkpt lat="42.4561" lon="2.05368">
        <ele>1327.4</ele>
        <time>2013-08-10T08:56:07Z</time>
      </trkpt>
      <trkpt lat="42.45609" lon="2.05364">
        <ele>1327.2</ele>
        <time>2013-08-10T08:56:09Z</time>
      </trkpt>
      <trkpt lat="42.45606" lon="2.05361">
        <ele>1327.1</ele>
        <time>2013-08-10T08:56:11Z</time>
      </trkpt>
      <trkpt lat="42.45603" lon="2.05357">
        <ele>1327</ele>
        <time>2013-08-10T08:56:13Z</time>
      </trkpt>
      <trkpt lat="42.45601" lon="2.05354">
        <ele>1326.9</ele>
        <time>2013-08-10T08:56:15Z</time>
      </trkpt>
      <trkpt lat="42.45598" lon="2.05351">
        <ele>1326.9</ele>
        <time>2013-08-10T08:56:17Z</time>
      </trkpt>
      <trkpt lat="42.45596" lon="2.05347">
        <ele>1327.1</ele>
        <time>2013-08-10T08:56:19Z</time>
      </trkpt>
      <trkpt lat="42.45592" lon="2.05343">
        <ele>1327.3</ele>
        <time>2013-08-10T08:56:21Z</time>
      </trkpt>
      <trkpt lat="42.45589" lon="2.0534">
        <ele>1326.1</ele>
        <time>2013-08-10T08:56:23Z</time>
      </trkpt>
      <trkpt lat="42.45587" lon="2.05336">
        <ele>1325.4</ele>
        <time>2013-08-10T08:56:25Z</time>
      </trkpt>
      <trkpt lat="42.45583" lon="2.05332">
        <ele>1325.1</ele>
        <time>2013-08-10T08:56:27Z</time>
      </trkpt>
      <trkpt lat="42.4558" lon="2.05328">
        <ele>1325.1</ele>
        <time>2013-08-10T08:56:29Z</time>
      </trkpt>
      <trkpt lat="42.45579" lon="2.05326">
        <ele>1325.1</ele>
        <time>2013-08-10T08:56:30Z</time>
      </trkpt>
      <trkpt lat="42.45575" lon="2.0532">
        <ele>1324.5</ele>
        <time>2013-08-10T08:56:33Z</time>
      </trkpt>
      <trkpt lat="42.45573" lon="2.05318">
        <ele>1324.4</ele>
        <time>2013-08-10T08:56:35Z</time>
      </trkpt>
      <trkpt lat="42.45571" lon="2.05314">
        <ele>1324.3</ele>
        <time>2013-08-10T08:56:37Z</time>
      </trkpt>
      <trkpt lat="42.45568" lon="2.0531">
        <ele>1323.7</ele>
        <time>2013-08-10T08:56:39Z</time>
      </trkpt>
      <trkpt lat="42.45566" lon="2.05306">
        <ele>1323.1</ele>
        <time>2013-08-10T08:56:41Z</time>
      </trkpt>
      <trkpt lat="42.45564" lon="2.05303">
        <ele>1322.6</ele>
        <time>2013-08-10T08:56:43Z</time>
      </trkpt>
      <trkpt lat="42.45562" lon="2.05299">
        <ele>1323.2</ele>
        <time>2013-08-10T08:56:45Z</time>
      </trkpt>
      <trkpt lat="42.45559" lon="2.05294">
        <ele>1322.8</ele>
        <time>2013-08-10T08:56:48Z</time>
      </trkpt>
      <trkpt lat="42.45556" lon="2.05291">
        <ele>1322.6</ele>
        <time>2013-08-10T08:56:50Z</time>
      </trkpt>
      <trkpt lat="42.45553" lon="2.05288">
        <ele>1322.5</ele>
        <time>2013-08-10T08:56:52Z</time>
      </trkpt>
      <trkpt lat="42.4555" lon="2.05283">
        <ele>1322.2</ele>
        <time>2013-08-10T08:56:54Z</time>
      </trkpt>
      <trkpt lat="42.45548" lon="2.0528">
        <ele>1321.8</ele>
        <time>2013-08-10T08:56:56Z</time>
      </trkpt>
      <trkpt lat="42.45545" lon="2.05277">
        <ele>1321.9</ele>
        <time>2013-08-10T08:56:58Z</time>
      </trkpt>
      <trkpt lat="42.45543" lon="2.05274">
        <ele>1322</ele>
        <time>2013-08-10T08:57:00Z</time>
      </trkpt>
      <trkpt lat="42.45541" lon="2.0527">
        <ele>1322</ele>
        <time>2013-08-10T08:57:02Z</time>
      </trkpt>
      <trkpt lat="42.45538" lon="2.05267">
        <ele>1321.1</ele>
        <time>2013-08-10T08:57:04Z</time>
      </trkpt>
      <trkpt lat="42.45536" lon="2.05263">
        <ele>1320.7</ele>
        <time>2013-08-10T08:57:06Z</time>
      </trkpt>
      <trkpt lat="42.45534" lon="2.05261">
        <ele>1320.4</ele>
        <time>2013-08-10T08:57:08Z</time>
      </trkpt>
      <trkpt lat="42.45531" lon="2.05257">
        <ele>1321</ele>
        <time>2013-08-10T08:57:11Z</time>
      </trkpt>
      <trkpt lat="42.4553" lon="2.05253">
        <ele>1321</ele>
        <time>2013-08-10T08:57:14Z</time>
      </trkpt>
      <trkpt lat="42.4553" lon="2.05247">
        <ele>1319.7</ele>
        <time>2013-08-10T08:57:18Z</time>
      </trkpt>
      <trkpt lat="42.45531" lon="2.05242">
        <ele>1319</ele>
        <time>2013-08-10T08:57:21Z</time>
      </trkpt>
      <trkpt lat="42.45531" lon="2.05236">
        <ele>1319.6</ele>
        <time>2013-08-10T08:57:25Z</time>
      </trkpt>
      <trkpt lat="42.4553" lon="2.0523">
        <ele>1318.7</ele>
        <time>2013-08-10T08:57:29Z</time>
      </trkpt>
      <trkpt lat="42.45531" lon="2.05225">
        <ele>1318</ele>
        <time>2013-08-10T08:57:32Z</time>
      </trkpt>
      <trkpt lat="42.4553" lon="2.05224">
        <ele>1317.6</ele>
        <time>2013-08-10T08:57:33Z</time>
      </trkpt>
      <trkpt lat="42.4553" lon="2.05214">
        <ele>1316.9</ele>
        <time>2013-08-10T08:57:39Z</time>
      </trkpt>
      <trkpt lat="42.4553" lon="2.05209">
        <ele>1316.9</ele>
        <time>2013-08-10T08:57:42Z</time>
      </trkpt>
      <trkpt lat="42.45529" lon="2.05204">
        <ele>1316.3</ele>
        <time>2013-08-10T08:57:45Z</time>
      </trkpt>
      <trkpt lat="42.4553" lon="2.05198">
        <ele>1316.2</ele>
        <time>2013-08-10T08:57:48Z</time>
      </trkpt>
      <trkpt lat="42.4553" lon="2.05192">
        <ele>1316.2</ele>
        <time>2013-08-10T08:57:51Z</time>
      </trkpt>
      <trkpt lat="42.45531" lon="2.05187">
        <ele>1316</ele>
        <time>2013-08-10T08:57:54Z</time>
      </trkpt>
      <trkpt lat="42.45533" lon="2.05184">
        <ele>1315.8</ele>
        <time>2013-08-10T08:57:56Z</time>
      </trkpt>
      <trkpt lat="42.45534" lon="2.05179">
        <ele>1315.9</ele>
        <time>2013-08-10T08:57:58Z</time>
      </trkpt>
      <trkpt lat="42.45535" lon="2.05174">
        <ele>1315.9</ele>
        <time>2013-08-10T08:58:01Z</time>
      </trkpt>
      <trkpt lat="42.45535" lon="2.05168">
        <ele>1315.9</ele>
        <time>2013-08-10T08:58:04Z</time>
      </trkpt>
      <trkpt lat="42.45537" lon="2.05163">
        <ele>1316.2</ele>
        <time>2013-08-10T08:58:07Z</time>
      </trkpt>
      <trkpt lat="42.45538" lon="2.05158">
        <ele>1315.8</ele>
        <time>2013-08-10T08:58:11Z</time>
      </trkpt>
      <trkpt lat="42.45538" lon="2.05153">
        <ele>1315.7</ele>
        <time>2013-08-10T08:58:14Z</time>
      </trkpt>
      <trkpt lat="42.45538" lon="2.05148">
        <ele>1315.4</ele>
        <time>2013-08-10T08:58:17Z</time>
      </trkpt>
      <trkpt lat="42.45538" lon="2.05143">
        <ele>1315</ele>
        <time>2013-08-10T08:58:19Z</time>
      </trkpt>
      <trkpt lat="42.45538" lon="2.05139">
        <ele>1315</ele>
        <time>2013-08-10T08:58:21Z</time>
      </trkpt>
      <trkpt lat="42.45538" lon="2.05133">
        <ele>1314.8</ele>
        <time>2013-08-10T08:58:24Z</time>
      </trkpt>
      <trkpt lat="42.45538" lon="2.05127">
        <ele>1314.7</ele>
        <time>2013-08-10T08:58:27Z</time>
      </trkpt>
      <trkpt lat="42.4554" lon="2.05122">
        <ele>1314.7</ele>
        <time>2013-08-10T08:58:30Z</time>
      </trkpt>
      <trkpt lat="42.4554" lon="2.05116">
        <ele>1314.8</ele>
        <time>2013-08-10T08:58:33Z</time>
      </trkpt>
      <trkpt lat="42.4554" lon="2.05115">
        <ele>1314.9</ele>
        <time>2013-08-10T08:58:34Z</time>
      </trkpt>
      <trkpt lat="42.45541" lon="2.05106">
        <ele>1314.1</ele>
        <time>2013-08-10T08:58:38Z</time>
      </trkpt>
      <trkpt lat="42.45542" lon="2.05102">
        <ele>1314.6</ele>
        <time>2013-08-10T08:58:41Z</time>
      </trkpt>
      <trkpt lat="42.45543" lon="2.05097">
        <ele>1314.6</ele>
        <time>2013-08-10T08:58:43Z</time>
      </trkpt>
      <trkpt lat="42.45544" lon="2.05093">
        <ele>1314.6</ele>
        <time>2013-08-10T08:58:45Z</time>
      </trkpt>
      <trkpt lat="42.45545" lon="2.05088">
        <ele>1314.6</ele>
        <time>2013-08-10T08:58:48Z</time>
      </trkpt>
      <trkpt lat="42.45546" lon="2.05083">
        <ele>1314.6</ele>
        <time>2013-08-10T08:58:50Z</time>
      </trkpt>
      <trkpt lat="42.45547" lon="2.05078">
        <ele>1314.4</ele>
        <time>2013-08-10T08:58:52Z</time>
      </trkpt>
      <trkpt lat="42.45547" lon="2.05074">
        <ele>1314.2</ele>
        <time>2013-08-10T08:58:54Z</time>
      </trkpt>
      <trkpt lat="42.45549" lon="2.0507">
        <ele>1313</ele>
        <time>2013-08-10T08:58:56Z</time>
      </trkpt>
      <trkpt lat="42.4555" lon="2.05065">
        <ele>1312.9</ele>
        <time>2013-08-10T08:58:58Z</time>
      </trkpt>
      <trkpt lat="42.45551" lon="2.05061">
        <ele>1313.3</ele>
        <time>2013-08-10T08:59:00Z</time>
      </trkpt>
      <trkpt lat="42.45551" lon="2.05056">
        <ele>1313.1</ele>
        <time>2013-08-10T08:59:02Z</time>
      </trkpt>
      <trkpt lat="42.45552" lon="2.05051">
        <ele>1313</ele>
        <time>2013-08-10T08:59:04Z</time>
      </trkpt>
      <trkpt lat="42.45554" lon="2.05047">
        <ele>1313</ele>
        <time>2013-08-10T08:59:06Z</time>
      </trkpt>
      <trkpt lat="42.45556" lon="2.05042">
        <ele>1313.2</ele>
        <time>2013-08-10T08:59:08Z</time>
      </trkpt>
      <trkpt lat="42.45557" lon="2.05038">
        <ele>1313.4</ele>
        <time>2013-08-10T08:59:10Z</time>
      </trkpt>
      <trkpt lat="42.45558" lon="2.05034">
        <ele>1313.8</ele>
        <time>2013-08-10T08:59:12Z</time>
      </trkpt>
      <trkpt lat="42.45559" lon="2.0503">
        <ele>1313.5</ele>
        <time>2013-08-10T08:59:14Z</time>
      </trkpt>
      <trkpt lat="42.4556" lon="2.05026">
        <ele>1313</ele>
        <time>2013-08-10T08:59:16Z</time>
      </trkpt>
      <trkpt lat="42.45561" lon="2.05022">
        <ele>1313.1</ele>
        <time>2013-08-10T08:59:18Z</time>
      </trkpt>
      <trkpt lat="42.45562" lon="2.05018">
        <ele>1313.1</ele>
        <time>2013-08-10T08:59:20Z</time>
      </trkpt>
      <trkpt lat="42.45564" lon="2.05014">
        <ele>1313.4</ele>
        <time>2013-08-10T08:59:22Z</time>
      </trkpt>
      <trkpt lat="42.45566" lon="2.0501">
        <ele>1313.3</ele>
        <time>2013-08-10T08:59:24Z</time>
      </trkpt>
      <trkpt lat="42.45567" lon="2.05006">
        <ele>1313</ele>
        <time>2013-08-10T08:59:26Z</time>
      </trkpt>
      <trkpt lat="42.45569" lon="2.05002">
        <ele>1313.2</ele>
        <time>2013-08-10T08:59:28Z</time>
      </trkpt>
      <trkpt lat="42.4557" lon="2.04998">
        <ele>1313.1</ele>
        <time>2013-08-10T08:59:30Z</time>
      </trkpt>
      <trkpt lat="42.45571" lon="2.04994">
        <ele>1312.8</ele>
        <time>2013-08-10T08:59:32Z</time>
      </trkpt>
      <trkpt lat="42.45572" lon="2.04989">
        <ele>1312.1</ele>
        <time>2013-08-10T08:59:35Z</time>
      </trkpt>
      <trkpt lat="42.45573" lon="2.04987">
        <ele>1311.9</ele>
        <time>2013-08-10T08:59:36Z</time>
      </trkpt>
      <trkpt lat="42.45575" lon="2.04981">
        <ele>1312.6</ele>
        <time>2013-08-10T08:59:39Z</time>
      </trkpt>
      <trkpt lat="42.45576" lon="2.04975">
        <ele>1311.5</ele>
        <time>2013-08-10T08:59:42Z</time>
      </trkpt>
      <trkpt lat="42.45578" lon="2.04972">
        <ele>1311.5</ele>
        <time>2013-08-10T08:59:44Z</time>
      </trkpt>
      <trkpt lat="42.45581" lon="2.04967">
        <ele>1310.7</ele>
        <time>2013-08-10T08:59:47Z</time>
      </trkpt>
      <trkpt lat="42.45583" lon="2.04963">
        <ele>1311</ele>
        <time>2013-08-10T08:59:50Z</time>
      </trkpt>
      <trkpt lat="42.45585" lon="2.04959">
        <ele>1311.1</ele>
        <time>2013-08-10T08:59:53Z</time>
      </trkpt>
      <trkpt lat="42.45588" lon="2.04954">
        <ele>1311</ele>
        <time>2013-08-10T08:59:56Z</time>
      </trkpt>
      <trkpt lat="42.4559" lon="2.04951">
        <ele>1311.1</ele>
        <time>2013-08-10T08:59:58Z</time>
      </trkpt>
      <trkpt lat="42.45592" lon="2.04947">
        <ele>1310.6</ele>
        <time>2013-08-10T09:00:00Z</time>
      </trkpt>
      <trkpt lat="42.45595" lon="2.04942">
        <ele>1310.5</ele>
        <time>2013-08-10T09:00:03Z</time>
      </trkpt>
      <trkpt lat="42.45598" lon="2.04939">
        <ele>1309.7</ele>
        <time>2013-08-10T09:00:06Z</time>
      </trkpt>
      <trkpt lat="42.456" lon="2.04936">
        <ele>1309.2</ele>
        <time>2013-08-10T09:00:09Z</time>
      </trkpt>
      <trkpt lat="42.45601" lon="2.04931">
        <ele>1309</ele>
        <time>2013-08-10T09:00:11Z</time>
      </trkpt>
      <trkpt lat="42.45603" lon="2.04928">
        <ele>1309.1</ele>
        <time>2013-08-10T09:00:13Z</time>
      </trkpt>
      <trkpt lat="42.45605" lon="2.04924">
        <ele>1309.2</ele>
        <time>2013-08-10T09:00:15Z</time>
      </trkpt>
      <trkpt lat="42.45606" lon="2.04921">
        <ele>1309.1</ele>
        <time>2013-08-10T09:00:17Z</time>
      </trkpt>
      <trkpt lat="42.45608" lon="2.04917">
        <ele>1309.5</ele>
        <time>2013-08-10T09:00:19Z</time>
      </trkpt>
      <trkpt lat="42.45608" lon="2.04913">
        <ele>1309.4</ele>
        <time>2013-08-10T09:00:21Z</time>
      </trkpt>
      <trkpt lat="42.4561" lon="2.04909">
        <ele>1309.2</ele>
        <time>2013-08-10T09:00:23Z</time>
      </trkpt>
      <trkpt lat="42.45611" lon="2.04904">
        <ele>1308.7</ele>
        <time>2013-08-10T09:00:25Z</time>
      </trkpt>
      <trkpt lat="42.45612" lon="2.049">
        <ele>1308.5</ele>
        <time>2013-08-10T09:00:27Z</time>
      </trkpt>
      <trkpt lat="42.45613" lon="2.04896">
        <ele>1308.1</ele>
        <time>2013-08-10T09:00:29Z</time>
      </trkpt>
      <trkpt lat="42.45614" lon="2.04892">
        <ele>1308</ele>
        <time>2013-08-10T09:00:31Z</time>
      </trkpt>
      <trkpt lat="42.45617" lon="2.04887">
        <ele>1308</ele>
        <time>2013-08-10T09:00:34Z</time>
      </trkpt>
      <trkpt lat="42.4562" lon="2.04883">
        <ele>1307.6</ele>
        <time>2013-08-10T09:00:37Z</time>
      </trkpt>
      <trkpt lat="42.45621" lon="2.04881">
        <ele>1307.5</ele>
        <time>2013-08-10T09:00:38Z</time>
      </trkpt>
      <trkpt lat="42.45624" lon="2.04875">
        <ele>1307.7</ele>
        <time>2013-08-10T09:00:42Z</time>
      </trkpt>
      <trkpt lat="42.45626" lon="2.04872">
        <ele>1307.6</ele>
        <time>2013-08-10T09:00:44Z</time>
      </trkpt>
      <trkpt lat="42.45628" lon="2.04867">
        <ele>1307.2</ele>
        <time>2013-08-10T09:00:47Z</time>
      </trkpt>
      <trkpt lat="42.4563" lon="2.04862">
        <ele>1306.9</ele>
        <time>2013-08-10T09:00:50Z</time>
      </trkpt>
      <trkpt lat="42.45631" lon="2.04858">
        <ele>1307.2</ele>
        <time>2013-08-10T09:00:52Z</time>
      </trkpt>
      <trkpt lat="42.45633" lon="2.04853">
        <ele>1307.5</ele>
        <time>2013-08-10T09:00:55Z</time>
      </trkpt>
      <trkpt lat="42.45635" lon="2.04848">
        <ele>1306.5</ele>
        <time>2013-08-10T09:00:58Z</time>
      </trkpt>
      <trkpt lat="42.45637" lon="2.04843">
        <ele>1306.5</ele>
        <time>2013-08-10T09:01:01Z</time>
      </trkpt>
      <trkpt lat="42.45639" lon="2.0484">
        <ele>1306.8</ele>
        <time>2013-08-10T09:01:03Z</time>
      </trkpt>
      <trkpt lat="42.45641" lon="2.04837">
        <ele>1307.1</ele>
        <time>2013-08-10T09:01:05Z</time>
      </trkpt>
      <trkpt lat="42.45642" lon="2.04832">
        <ele>1306.6</ele>
        <time>2013-08-10T09:01:07Z</time>
      </trkpt>
      <trkpt lat="42.45643" lon="2.04826">
        <ele>1306.8</ele>
        <time>2013-08-10T09:01:09Z</time>
      </trkpt>
      <trkpt lat="42.45644" lon="2.04822">
        <ele>1307.2</ele>
        <time>2013-08-10T09:01:11Z</time>
      </trkpt>
      <trkpt lat="42.45646" lon="2.04819">
        <ele>1306</ele>
        <time>2013-08-10T09:01:13Z</time>
      </trkpt>
      <trkpt lat="42.45647" lon="2.04813">
        <ele>1305.2</ele>
        <time>2013-08-10T09:01:16Z</time>
      </trkpt>
      <trkpt lat="42.45648" lon="2.04808">
        <ele>1305.1</ele>
        <time>2013-08-10T09:01:18Z</time>
      </trkpt>
      <trkpt lat="42.45648" lon="2.04803">
        <ele>1305.1</ele>
        <time>2013-08-10T09:01:20Z</time>
      </trkpt>
      <trkpt lat="42.45649" lon="2.04797">
        <ele>1304.9</ele>
        <time>2013-08-10T09:01:23Z</time>
      </trkpt>
      <trkpt lat="42.45649" lon="2.04793">
        <ele>1305</ele>
        <time>2013-08-10T09:01:25Z</time>
      </trkpt>
      <trkpt lat="42.4565" lon="2.04788">
        <ele>1305.2</ele>
        <time>2013-08-10T09:01:27Z</time>
      </trkpt>
      <trkpt lat="42.4565" lon="2.04785">
        <ele>1305</ele>
        <time>2013-08-10T09:01:28Z</time>
      </trkpt>
      <trkpt lat="42.45649" lon="2.0478">
        <ele>1304.8</ele>
        <time>2013-08-10T09:01:30Z</time>
      </trkpt>
      <trkpt lat="42.45649" lon="2.04775">
        <ele>1304.7</ele>
        <time>2013-08-10T09:01:32Z</time>
      </trkpt>
      <trkpt lat="42.45649" lon="2.04772">
        <ele>1304.7</ele>
        <time>2013-08-10T09:01:33Z</time>
      </trkpt>
      <trkpt lat="42.45649" lon="2.04767">
        <ele>1304.5</ele>
        <time>2013-08-10T09:01:35Z</time>
      </trkpt>
      <trkpt lat="42.45649" lon="2.04762">
        <ele>1304.4</ele>
        <time>2013-08-10T09:01:37Z</time>
      </trkpt>
      <trkpt lat="42.4565" lon="2.04757">
        <ele>1304.2</ele>
        <time>2013-08-10T09:01:40Z</time>
      </trkpt>
      <trkpt lat="42.4565" lon="2.04754">
        <ele>1304.1</ele>
        <time>2013-08-10T09:01:41Z</time>
      </trkpt>
      <trkpt lat="42.45652" lon="2.04747">
        <ele>1304</ele>
        <time>2013-08-10T09:01:45Z</time>
      </trkpt>
      <trkpt lat="42.45652" lon="2.04742">
        <ele>1304</ele>
        <time>2013-08-10T09:01:47Z</time>
      </trkpt>
      <trkpt lat="42.45653" lon="2.04737">
        <ele>1304</ele>
        <time>2013-08-10T09:01:50Z</time>
      </trkpt>
      <trkpt lat="42.45655" lon="2.04733">
        <ele>1303.1</ele>
        <time>2013-08-10T09:01:53Z</time>
      </trkpt>
      <trkpt lat="42.45657" lon="2.04728">
        <ele>1302.1</ele>
        <time>2013-08-10T09:01:57Z</time>
      </trkpt>
      <trkpt lat="42.4566" lon="2.04723">
        <ele>1301.7</ele>
        <time>2013-08-10T09:02:00Z</time>
      </trkpt>
      <trkpt lat="42.45661" lon="2.04718">
        <ele>1301.2</ele>
        <time>2013-08-10T09:02:03Z</time>
      </trkpt>
      <trkpt lat="42.45662" lon="2.04713">
        <ele>1301.3</ele>
        <time>2013-08-10T09:02:05Z</time>
      </trkpt>
      <trkpt lat="42.45664" lon="2.04709">
        <ele>1301.1</ele>
        <time>2013-08-10T09:02:07Z</time>
      </trkpt>
      <trkpt lat="42.45666" lon="2.04705">
        <ele>1300.8</ele>
        <time>2013-08-10T09:02:09Z</time>
      </trkpt>
      <trkpt lat="42.45665" lon="2.04701">
        <ele>1300.4</ele>
        <time>2013-08-10T09:02:11Z</time>
      </trkpt>
      <trkpt lat="42.45666" lon="2.04696">
        <ele>1299.8</ele>
        <time>2013-08-10T09:02:13Z</time>
      </trkpt>
      <trkpt lat="42.45668" lon="2.04691">
        <ele>1299.3</ele>
        <time>2013-08-10T09:02:15Z</time>
      </trkpt>
      <trkpt lat="42.45669" lon="2.04687">
        <ele>1299.3</ele>
        <time>2013-08-10T09:02:17Z</time>
      </trkpt>
      <trkpt lat="42.45671" lon="2.04684">
        <ele>1299.4</ele>
        <time>2013-08-10T09:02:19Z</time>
      </trkpt>
      <trkpt lat="42.45674" lon="2.04681">
        <ele>1299.5</ele>
        <time>2013-08-10T09:02:21Z</time>
      </trkpt>
      <trkpt lat="42.45677" lon="2.04678">
        <ele>1299.1</ele>
        <time>2013-08-10T09:02:23Z</time>
      </trkpt>
      <trkpt lat="42.45677" lon="2.04674">
        <ele>1298.6</ele>
        <time>2013-08-10T09:02:25Z</time>
      </trkpt>
      <trkpt lat="42.45677" lon="2.04672">
        <ele>1298.2</ele>
        <time>2013-08-10T09:02:26Z</time>
      </trkpt>
      <trkpt lat="42.45677" lon="2.04666">
        <ele>1297.7</ele>
        <time>2013-08-10T09:02:28Z</time>
      </trkpt>
      <trkpt lat="42.45677" lon="2.04661">
        <ele>1297.2</ele>
        <time>2013-08-10T09:02:30Z</time>
      </trkpt>
      <trkpt lat="42.45678" lon="2.04656">
        <ele>1296.9</ele>
        <time>2013-08-10T09:02:32Z</time>
      </trkpt>
      <trkpt lat="42.45679" lon="2.04651">
        <ele>1296.8</ele>
        <time>2013-08-10T09:02:34Z</time>
      </trkpt>
      <trkpt lat="42.45678" lon="2.04647">
        <ele>1296.8</ele>
        <time>2013-08-10T09:02:35Z</time>
      </trkpt>
      <trkpt lat="42.45678" lon="2.04643">
        <ele>1296.8</ele>
        <time>2013-08-10T09:02:37Z</time>
      </trkpt>
      <trkpt lat="42.45679" lon="2.04637">
        <ele>1296.9</ele>
        <time>2013-08-10T09:02:40Z</time>
      </trkpt>
      <trkpt lat="42.45678" lon="2.04632">
        <ele>1296.5</ele>
        <time>2013-08-10T09:02:42Z</time>
      </trkpt>
      <trkpt lat="42.45677" lon="2.0463">
        <ele>1296.2</ele>
        <time>2013-08-10T09:02:43Z</time>
      </trkpt>
      <trkpt lat="42.45675" lon="2.04621">
        <ele>1296.1</ele>
        <time>2013-08-10T09:02:46Z</time>
      </trkpt>
      <trkpt lat="42.45673" lon="2.04618">
        <ele>1296</ele>
        <time>2013-08-10T09:02:48Z</time>
      </trkpt>
      <trkpt lat="42.45672" lon="2.04613">
        <ele>1295.9</ele>
        <time>2013-08-10T09:02:50Z</time>
      </trkpt>
      <trkpt lat="42.45671" lon="2.04608">
        <ele>1295.8</ele>
        <time>2013-08-10T09:02:52Z</time>
      </trkpt>
      <trkpt lat="42.4567" lon="2.04602">
        <ele>1295.6</ele>
        <time>2013-08-10T09:02:54Z</time>
      </trkpt>
      <trkpt lat="42.45669" lon="2.04597">
        <ele>1295.4</ele>
        <time>2013-08-10T09:02:57Z</time>
      </trkpt>
      <trkpt lat="42.45669" lon="2.04592">
        <ele>1295.5</ele>
        <time>2013-08-10T09:03:00Z</time>
      </trkpt>
      <trkpt lat="42.45668" lon="2.04586">
        <ele>1295.9</ele>
        <time>2013-08-10T09:03:03Z</time>
      </trkpt>
      <trkpt lat="42.45669" lon="2.04581">
        <ele>1295.6</ele>
        <time>2013-08-10T09:03:06Z</time>
      </trkpt>
      <trkpt lat="42.45669" lon="2.04577">
        <ele>1295.1</ele>
        <time>2013-08-10T09:03:09Z</time>
      </trkpt>
      <trkpt lat="42.4567" lon="2.04571">
        <ele>1294.6</ele>
        <time>2013-08-10T09:03:12Z</time>
      </trkpt>
      <trkpt lat="42.45672" lon="2.04567">
        <ele>1295</ele>
        <time>2013-08-10T09:03:14Z</time>
      </trkpt>
      <trkpt lat="42.45675" lon="2.04564">
        <ele>1296</ele>
        <time>2013-08-10T09:03:17Z</time>
      </trkpt>
      <trkpt lat="42.45677" lon="2.0456">
        <ele>1296.4</ele>
        <time>2013-08-10T09:03:19Z</time>
      </trkpt>
      <trkpt lat="42.45679" lon="2.04556">
        <ele>1295.8</ele>
        <time>2013-08-10T09:03:21Z</time>
      </trkpt>
      <trkpt lat="42.45681" lon="2.04552">
        <ele>1296</ele>
        <time>2013-08-10T09:03:23Z</time>
      </trkpt>
      <trkpt lat="42.45682" lon="2.04548">
        <ele>1296.5</ele>
        <time>2013-08-10T09:03:25Z</time>
      </trkpt>
      <trkpt lat="42.45684" lon="2.04545">
        <ele>1296.2</ele>
        <time>2013-08-10T09:03:27Z</time>
      </trkpt>
      <trkpt lat="42.45686" lon="2.0454">
        <ele>1295.7</ele>
        <time>2013-08-10T09:03:30Z</time>
      </trkpt>
      <trkpt lat="42.45689" lon="2.04536">
        <ele>1295.1</ele>
        <time>2013-08-10T09:03:33Z</time>
      </trkpt>
      <trkpt lat="42.4569" lon="2.04532">
        <ele>1294.9</ele>
        <time>2013-08-10T09:03:36Z</time>
      </trkpt>
      <trkpt lat="42.45692" lon="2.04529">
        <ele>1294.8</ele>
        <time>2013-08-10T09:03:38Z</time>
      </trkpt>
      <trkpt lat="42.45694" lon="2.04524">
        <ele>1294.8</ele>
        <time>2013-08-10T09:03:40Z</time>
      </trkpt>
      <trkpt lat="42.45696" lon="2.0452">
        <ele>1294.5</ele>
        <time>2013-08-10T09:03:42Z</time>
      </trkpt>
      <trkpt lat="42.45697" lon="2.04518">
        <ele>1294.4</ele>
        <time>2013-08-10T09:03:43Z</time>
      </trkpt>
      <trkpt lat="42.45699" lon="2.04512">
        <ele>1294.7</ele>
        <time>2013-08-10T09:03:46Z</time>
      </trkpt>
      <trkpt lat="42.45701" lon="2.0451">
        <ele>1294.9</ele>
        <time>2013-08-10T09:03:47Z</time>
      </trkpt>
      <trkpt lat="42.45704" lon="2.04508">
        <ele>1295.1</ele>
        <time>2013-08-10T09:03:49Z</time>
      </trkpt>
      <trkpt lat="42.45706" lon="2.04503">
        <ele>1295</ele>
        <time>2013-08-10T09:03:52Z</time>
      </trkpt>
      <trkpt lat="42.45707" lon="2.04497">
        <ele>1295.6</ele>
        <time>2013-08-10T09:03:55Z</time>
      </trkpt>
      <trkpt lat="42.45709" lon="2.04493">
        <ele>1295.5</ele>
        <time>2013-08-10T09:03:57Z</time>
      </trkpt>
      <trkpt lat="42.45712" lon="2.04489">
        <ele>1295.1</ele>
        <time>2013-08-10T09:04:00Z</time>
      </trkpt>
      <trkpt lat="42.45714" lon="2.04486">
        <ele>1295.3</ele>
        <time>2013-08-10T09:04:03Z</time>
      </trkpt>
      <trkpt lat="42.45715" lon="2.04482">
        <ele>1294.6</ele>
        <time>2013-08-10T09:04:05Z</time>
      </trkpt>
      <trkpt lat="42.45716" lon="2.04477">
        <ele>1294.5</ele>
        <time>2013-08-10T09:04:07Z</time>
      </trkpt>
      <trkpt lat="42.45717" lon="2.04472">
        <ele>1294.3</ele>
        <time>2013-08-10T09:04:10Z</time>
      </trkpt>
      <trkpt lat="42.45721" lon="2.04468">
        <ele>1293.9</ele>
        <time>2013-08-10T09:04:13Z</time>
      </trkpt>
      <trkpt lat="42.45724" lon="2.04464">
        <ele>1294</ele>
        <time>2013-08-10T09:04:16Z</time>
      </trkpt>
      <trkpt lat="42.45725" lon="2.04458">
        <ele>1293.9</ele>
        <time>2013-08-10T09:04:19Z</time>
      </trkpt>
      <trkpt lat="42.45725" lon="2.04453">
        <ele>1294.5</ele>
        <time>2013-08-10T09:04:21Z</time>
      </trkpt>
      <trkpt lat="42.45726" lon="2.04447">
        <ele>1294.3</ele>
        <time>2013-08-10T09:04:24Z</time>
      </trkpt>
      <trkpt lat="42.45727" lon="2.04442">
        <ele>1294</ele>
        <time>2013-08-10T09:04:26Z</time>
      </trkpt>
      <trkpt lat="42.45728" lon="2.04438">
        <ele>1293.8</ele>
        <time>2013-08-10T09:04:28Z</time>
      </trkpt>
      <trkpt lat="42.45728" lon="2.04434">
        <ele>1293.6</ele>
        <time>2013-08-10T09:04:30Z</time>
      </trkpt>
      <trkpt lat="42.45729" lon="2.04428">
        <ele>1293.2</ele>
        <time>2013-08-10T09:04:32Z</time>
      </trkpt>
      <trkpt lat="42.4573" lon="2.04424">
        <ele>1292.8</ele>
        <time>2013-08-10T09:04:34Z</time>
      </trkpt>
      <trkpt lat="42.45731" lon="2.0442">
        <ele>1292.7</ele>
        <time>2013-08-10T09:04:36Z</time>
      </trkpt>
      <trkpt lat="42.45732" lon="2.04416">
        <ele>1292.6</ele>
        <time>2013-08-10T09:04:38Z</time>
      </trkpt>
      <trkpt lat="42.45733" lon="2.04412">
        <ele>1293.1</ele>
        <time>2013-08-10T09:04:40Z</time>
      </trkpt>
      <trkpt lat="42.45736" lon="2.04407">
        <ele>1293.4</ele>
        <time>2013-08-10T09:04:43Z</time>
      </trkpt>
      <trkpt lat="42.45737" lon="2.04406">
        <ele>1293.4</ele>
        <time>2013-08-10T09:04:44Z</time>
      </trkpt>
      <trkpt lat="42.4574" lon="2.04398">
        <ele>1292.3</ele>
        <time>2013-08-10T09:04:49Z</time>
      </trkpt>
      <trkpt lat="42.45743" lon="2.04394">
        <ele>1291.8</ele>
        <time>2013-08-10T09:04:52Z</time>
      </trkpt>
      <trkpt lat="42.45744" lon="2.0439">
        <ele>1291.4</ele>
        <time>2013-08-10T09:04:54Z</time>
      </trkpt>
      <trkpt lat="42.45745" lon="2.04385">
        <ele>1291.8</ele>
        <time>2013-08-10T09:04:56Z</time>
      </trkpt>
      <trkpt lat="42.45747" lon="2.0438">
        <ele>1291.7</ele>
        <time>2013-08-10T09:04:59Z</time>
      </trkpt>
      <trkpt lat="42.45749" lon="2.04376">
        <ele>1291.5</ele>
        <time>2013-08-10T09:05:02Z</time>
      </trkpt>
      <trkpt lat="42.45751" lon="2.04372">
        <ele>1291.1</ele>
        <time>2013-08-10T09:05:04Z</time>
      </trkpt>
      <trkpt lat="42.45752" lon="2.04367">
        <ele>1290.9</ele>
        <time>2013-08-10T09:05:07Z</time>
      </trkpt>
      <trkpt lat="42.45753" lon="2.04362">
        <ele>1291.1</ele>
        <time>2013-08-10T09:05:09Z</time>
      </trkpt>
      <trkpt lat="42.45753" lon="2.04357">
        <ele>1291</ele>
        <time>2013-08-10T09:05:11Z</time>
      </trkpt>
      <trkpt lat="42.45754" lon="2.04352">
        <ele>1290.8</ele>
        <time>2013-08-10T09:05:13Z</time>
      </trkpt>
      <trkpt lat="42.45755" lon="2.04348">
        <ele>1290.5</ele>
        <time>2013-08-10T09:05:15Z</time>
      </trkpt>
      <trkpt lat="42.45755" lon="2.04343">
        <ele>1290</ele>
        <time>2013-08-10T09:05:17Z</time>
      </trkpt>
      <trkpt lat="42.45755" lon="2.04339">
        <ele>1289.4</ele>
        <time>2013-08-10T09:05:19Z</time>
      </trkpt>
      <trkpt lat="42.45756" lon="2.04335">
        <ele>1289.1</ele>
        <time>2013-08-10T09:05:21Z</time>
      </trkpt>
      <trkpt lat="42.45757" lon="2.04331">
        <ele>1288.9</ele>
        <time>2013-08-10T09:05:23Z</time>
      </trkpt>
      <trkpt lat="42.45759" lon="2.04327">
        <ele>1288.7</ele>
        <time>2013-08-10T09:05:25Z</time>
      </trkpt>
      <trkpt lat="42.45759" lon="2.04322">
        <ele>1288.7</ele>
        <time>2013-08-10T09:05:27Z</time>
      </trkpt>
      <trkpt lat="42.4576" lon="2.04317">
        <ele>1288.8</ele>
        <time>2013-08-10T09:05:29Z</time>
      </trkpt>
      <trkpt lat="42.45759" lon="2.04313">
        <ele>1288.2</ele>
        <time>2013-08-10T09:05:31Z</time>
      </trkpt>
      <trkpt lat="42.45758" lon="2.04309">
        <ele>1287.9</ele>
        <time>2013-08-10T09:05:33Z</time>
      </trkpt>
      <trkpt lat="42.45757" lon="2.04303">
        <ele>1287.8</ele>
        <time>2013-08-10T09:05:35Z</time>
      </trkpt>
      <trkpt lat="42.45756" lon="2.04299">
        <ele>1287.5</ele>
        <time>2013-08-10T09:05:37Z</time>
      </trkpt>
      <trkpt lat="42.45755" lon="2.04293">
        <ele>1286.6</ele>
        <time>2013-08-10T09:05:40Z</time>
      </trkpt>
      <trkpt lat="42.45754" lon="2.04288">
        <ele>1285.9</ele>
        <time>2013-08-10T09:05:43Z</time>
      </trkpt>
      <trkpt lat="42.45752" lon="2.04284">
        <ele>1285.8</ele>
        <time>2013-08-10T09:05:45Z</time>
      </trkpt>
      <trkpt lat="42.45752" lon="2.04282">
        <ele>1285.6</ele>
        <time>2013-08-10T09:05:46Z</time>
      </trkpt>
      <trkpt lat="42.4575" lon="2.04275">
        <ele>1285.4</ele>
        <time>2013-08-10T09:05:49Z</time>
      </trkpt>
      <trkpt lat="42.45748" lon="2.0427">
        <ele>1285.5</ele>
        <time>2013-08-10T09:05:51Z</time>
      </trkpt>
      <trkpt lat="42.45747" lon="2.04266">
        <ele>1285</ele>
        <time>2013-08-10T09:05:53Z</time>
      </trkpt>
      <trkpt lat="42.45746" lon="2.04262">
        <ele>1284.7</ele>
        <time>2013-08-10T09:05:55Z</time>
      </trkpt>
      <trkpt lat="42.45744" lon="2.04259">
        <ele>1284.4</ele>
        <time>2013-08-10T09:05:57Z</time>
      </trkpt>
      <trkpt lat="42.45743" lon="2.04255">
        <ele>1284.5</ele>
        <time>2013-08-10T09:05:59Z</time>
      </trkpt>
      <trkpt lat="42.45741" lon="2.0425">
        <ele>1284.5</ele>
        <time>2013-08-10T09:06:01Z</time>
      </trkpt>
      <trkpt lat="42.45739" lon="2.04245">
        <ele>1283.9</ele>
        <time>2013-08-10T09:06:04Z</time>
      </trkpt>
      <trkpt lat="42.45738" lon="2.04239">
        <ele>1283.2</ele>
        <time>2013-08-10T09:06:07Z</time>
      </trkpt>
      <trkpt lat="42.45738" lon="2.04235">
        <ele>1282.9</ele>
        <time>2013-08-10T09:06:09Z</time>
      </trkpt>
      <trkpt lat="42.45737" lon="2.0423">
        <ele>1282.5</ele>
        <time>2013-08-10T09:06:13Z</time>
      </trkpt>
      <trkpt lat="42.45736" lon="2.04224">
        <ele>1282.1</ele>
        <time>2013-08-10T09:06:16Z</time>
      </trkpt>
      <trkpt lat="42.45736" lon="2.04218">
        <ele>1282.2</ele>
        <time>2013-08-10T09:06:20Z</time>
      </trkpt>
      <trkpt lat="42.45737" lon="2.04213">
        <ele>1281.9</ele>
        <time>2013-08-10T09:06:24Z</time>
      </trkpt>
      <trkpt lat="42.45739" lon="2.04209">
        <ele>1282</ele>
        <time>2013-08-10T09:06:27Z</time>
      </trkpt>
      <trkpt lat="42.4574" lon="2.04204">
        <ele>1281.4</ele>
        <time>2013-08-10T09:06:30Z</time>
      </trkpt>
      <trkpt lat="42.4574" lon="2.042">
        <ele>1280.8</ele>
        <time>2013-08-10T09:06:32Z</time>
      </trkpt>
      <trkpt lat="42.4574" lon="2.04195">
        <ele>1280.7</ele>
        <time>2013-08-10T09:06:34Z</time>
      </trkpt>
      <trkpt lat="42.4574" lon="2.04191">
        <ele>1280.8</ele>
        <time>2013-08-10T09:06:36Z</time>
      </trkpt>
      <trkpt lat="42.45741" lon="2.04187">
        <ele>1281.4</ele>
        <time>2013-08-10T09:06:38Z</time>
      </trkpt>
      <trkpt lat="42.45743" lon="2.04182">
        <ele>1281.4</ele>
        <time>2013-08-10T09:06:40Z</time>
      </trkpt>
      <trkpt lat="42.45744" lon="2.04179">
        <ele>1281.3</ele>
        <time>2013-08-10T09:06:41Z</time>
      </trkpt>
      <trkpt lat="42.45746" lon="2.04174">
        <ele>1281.2</ele>
        <time>2013-08-10T09:06:43Z</time>
      </trkpt>
      <trkpt lat="42.45748" lon="2.04169">
        <ele>1281.2</ele>
        <time>2013-08-10T09:06:45Z</time>
      </trkpt>
      <trkpt lat="42.4575" lon="2.04165">
        <ele>1280.5</ele>
        <time>2013-08-10T09:06:48Z</time>
      </trkpt>
      <trkpt lat="42.45751" lon="2.04163">
        <ele>1280.4</ele>
        <time>2013-08-10T09:06:49Z</time>
      </trkpt>
      <trkpt lat="42.45752" lon="2.04154">
        <ele>1279.6</ele>
        <time>2013-08-10T09:06:55Z</time>
      </trkpt>
      <trkpt lat="42.45752" lon="2.04149">
        <ele>1279.3</ele>
        <time>2013-08-10T09:06:58Z</time>
      </trkpt>
      <trkpt lat="42.45753" lon="2.04144">
        <ele>1279.5</ele>
        <time>2013-08-10T09:07:02Z</time>
      </trkpt>
      <trkpt lat="42.45753" lon="2.04138">
        <ele>1279.8</ele>
        <time>2013-08-10T09:07:05Z</time>
      </trkpt>
      <trkpt lat="42.45753" lon="2.04133">
        <ele>1279.4</ele>
        <time>2013-08-10T09:07:07Z</time>
      </trkpt>
      <trkpt lat="42.45752" lon="2.04127">
        <ele>1279.3</ele>
        <time>2013-08-10T09:07:09Z</time>
      </trkpt>
      <trkpt lat="42.45752" lon="2.04121">
        <ele>1279.6</ele>
        <time>2013-08-10T09:07:12Z</time>
      </trkpt>
      <trkpt lat="42.45753" lon="2.04117">
        <ele>1279.8</ele>
        <time>2013-08-10T09:07:14Z</time>
      </trkpt>
      <trkpt lat="42.45755" lon="2.04113">
        <ele>1280</ele>
        <time>2013-08-10T09:07:17Z</time>
      </trkpt>
      <trkpt lat="42.45755" lon="2.04107">
        <ele>1280.2</ele>
        <time>2013-08-10T09:07:20Z</time>
      </trkpt>
      <trkpt lat="42.45755" lon="2.04103">
        <ele>1280.1</ele>
        <time>2013-08-10T09:07:22Z</time>
      </trkpt>
      <trkpt lat="42.45755" lon="2.04098">
        <ele>1279.9</ele>
        <time>2013-08-10T09:07:24Z</time>
      </trkpt>
      <trkpt lat="42.45756" lon="2.04094">
        <ele>1279.8</ele>
        <time>2013-08-10T09:07:26Z</time>
      </trkpt>
      <trkpt lat="42.45756" lon="2.04089">
        <ele>1279.8</ele>
        <time>2013-08-10T09:07:28Z</time>
      </trkpt>
      <trkpt lat="42.45757" lon="2.04084">
        <ele>1280</ele>
        <time>2013-08-10T09:07:31Z</time>
      </trkpt>
      <trkpt lat="42.45759" lon="2.04079">
        <ele>1280.2</ele>
        <time>2013-08-10T09:07:34Z</time>
      </trkpt>
      <trkpt lat="42.45761" lon="2.04075">
        <ele>1280.5</ele>
        <time>2013-08-10T09:07:36Z</time>
      </trkpt>
      <trkpt lat="42.45761" lon="2.0407">
        <ele>1280.6</ele>
        <time>2013-08-10T09:07:38Z</time>
      </trkpt>
      <trkpt lat="42.45763" lon="2.04066">
        <ele>1280.7</ele>
        <time>2013-08-10T09:07:40Z</time>
      </trkpt>
      <trkpt lat="42.45765" lon="2.04062">
        <ele>1280.4</ele>
        <time>2013-08-10T09:07:42Z</time>
      </trkpt>
      <trkpt lat="42.45767" lon="2.0406">
        <ele>1280.3</ele>
        <time>2013-08-10T09:07:43Z</time>
      </trkpt>
      <trkpt lat="42.45769" lon="2.04057">
        <ele>1280.3</ele>
        <time>2013-08-10T09:07:44Z</time>
      </trkpt>
      <trkpt lat="42.45772" lon="2.04054">
        <ele>1280.3</ele>
        <time>2013-08-10T09:07:46Z</time>
      </trkpt>
      <trkpt lat="42.45774" lon="2.0405">
        <ele>1280</ele>
        <time>2013-08-10T09:07:48Z</time>
      </trkpt>
      <trkpt lat="42.45776" lon="2.04046">
        <ele>1279.8</ele>
        <time>2013-08-10T09:07:50Z</time>
      </trkpt>
      <trkpt lat="42.45777" lon="2.04045">
        <ele>1279.6</ele>
        <time>2013-08-10T09:07:51Z</time>
      </trkpt>
      <trkpt lat="42.4578" lon="2.04038">
        <ele>1279</ele>
        <time>2013-08-10T09:07:56Z</time>
      </trkpt>
      <trkpt lat="42.45783" lon="2.04035">
        <ele>1279.1</ele>
        <time>2013-08-10T09:07:58Z</time>
      </trkpt>
      <trkpt lat="42.45785" lon="2.04031">
        <ele>1279.2</ele>
        <time>2013-08-10T09:08:00Z</time>
      </trkpt>
      <trkpt lat="42.45787" lon="2.04027">
        <ele>1279.3</ele>
        <time>2013-08-10T09:08:02Z</time>
      </trkpt>
      <trkpt lat="42.4579" lon="2.04024">
        <ele>1280.2</ele>
        <time>2013-08-10T09:08:04Z</time>
      </trkpt>
      <trkpt lat="42.45793" lon="2.04021">
        <ele>1280</ele>
        <time>2013-08-10T09:08:07Z</time>
      </trkpt>
      <trkpt lat="42.45796" lon="2.04018">
        <ele>1279.4</ele>
        <time>2013-08-10T09:08:10Z</time>
      </trkpt>
      <trkpt lat="42.45798" lon="2.04014">
        <ele>1278.8</ele>
        <time>2013-08-10T09:08:13Z</time>
      </trkpt>
      <trkpt lat="42.458" lon="2.0401">
        <ele>1278.4</ele>
        <time>2013-08-10T09:08:15Z</time>
      </trkpt>
      <trkpt lat="42.45802" lon="2.04007">
        <ele>1278.4</ele>
        <time>2013-08-10T09:08:17Z</time>
      </trkpt>
      <trkpt lat="42.45806" lon="2.04003">
        <ele>1277.9</ele>
        <time>2013-08-10T09:08:20Z</time>
      </trkpt>
      <trkpt lat="42.45808" lon="2.04">
        <ele>1277.4</ele>
        <time>2013-08-10T09:08:22Z</time>
      </trkpt>
      <trkpt lat="42.45809" lon="2.03995">
        <ele>1277</ele>
        <time>2013-08-10T09:08:24Z</time>
      </trkpt>
      <trkpt lat="42.45809" lon="2.0399">
        <ele>1277.5</ele>
        <time>2013-08-10T09:08:26Z</time>
      </trkpt>
      <trkpt lat="42.4581" lon="2.03984">
        <ele>1277.9</ele>
        <time>2013-08-10T09:08:28Z</time>
      </trkpt>
      <trkpt lat="42.4581" lon="2.03978">
        <ele>1277.5</ele>
        <time>2013-08-10T09:08:30Z</time>
      </trkpt>
      <trkpt lat="42.45812" lon="2.03974">
        <ele>1276.9</ele>
        <time>2013-08-10T09:08:32Z</time>
      </trkpt>
      <trkpt lat="42.45813" lon="2.03968">
        <ele>1276.3</ele>
        <time>2013-08-10T09:08:35Z</time>
      </trkpt>
      <trkpt lat="42.45814" lon="2.03963">
        <ele>1276.8</ele>
        <time>2013-08-10T09:08:38Z</time>
      </trkpt>
      <trkpt lat="42.45816" lon="2.03958">
        <ele>1277.1</ele>
        <time>2013-08-10T09:08:41Z</time>
      </trkpt>
      <trkpt lat="42.45816" lon="2.03954">
        <ele>1276.9</ele>
        <time>2013-08-10T09:08:43Z</time>
      </trkpt>
      <trkpt lat="42.45816" lon="2.03948">
        <ele>1276.4</ele>
        <time>2013-08-10T09:08:46Z</time>
      </trkpt>
      <trkpt lat="42.45815" lon="2.03944">
        <ele>1276.3</ele>
        <time>2013-08-10T09:08:48Z</time>
      </trkpt>
      <trkpt lat="42.45813" lon="2.0394">
        <ele>1276.2</ele>
        <time>2013-08-10T09:08:50Z</time>
      </trkpt>
      <trkpt lat="42.45812" lon="2.03934">
        <ele>1276.1</ele>
        <time>2013-08-10T09:08:53Z</time>
      </trkpt>
      <trkpt lat="42.45812" lon="2.03932">
        <ele>1276</ele>
        <time>2013-08-10T09:08:54Z</time>
      </trkpt>
      <trkpt lat="42.45813" lon="2.03926">
        <ele>1276</ele>
        <time>2013-08-10T09:08:57Z</time>
      </trkpt>
      <trkpt lat="42.45813" lon="2.0392">
        <ele>1275.8</ele>
        <time>2013-08-10T09:09:00Z</time>
      </trkpt>
      <trkpt lat="42.45811" lon="2.03917">
        <ele>1275.6</ele>
        <time>2013-08-10T09:09:02Z</time>
      </trkpt>
      <trkpt lat="42.4581" lon="2.03912">
        <ele>1276.3</ele>
        <time>2013-08-10T09:09:05Z</time>
      </trkpt>
      <trkpt lat="42.4581" lon="2.03908">
        <ele>1276.3</ele>
        <time>2013-08-10T09:09:07Z</time>
      </trkpt>
      <trkpt lat="42.45812" lon="2.03903">
        <ele>1275.8</ele>
        <time>2013-08-10T09:09:10Z</time>
      </trkpt>
      <trkpt lat="42.45814" lon="2.03898">
        <ele>1275.4</ele>
        <time>2013-08-10T09:09:13Z</time>
      </trkpt>
      <trkpt lat="42.45816" lon="2.03893">
        <ele>1274.8</ele>
        <time>2013-08-10T09:09:16Z</time>
      </trkpt>
      <trkpt lat="42.45817" lon="2.03887">
        <ele>1274.2</ele>
        <time>2013-08-10T09:09:19Z</time>
      </trkpt>
      <trkpt lat="42.45818" lon="2.03884">
        <ele>1274.9</ele>
        <time>2013-08-10T09:09:21Z</time>
      </trkpt>
      <trkpt lat="42.45819" lon="2.03878">
        <ele>1275.5</ele>
        <time>2013-08-10T09:09:24Z</time>
      </trkpt>
      <trkpt lat="42.4582" lon="2.03874">
        <ele>1276</ele>
        <time>2013-08-10T09:09:30Z</time>
      </trkpt>
      <trkpt lat="42.4582" lon="2.03874">
        <ele>1276</ele>
        <time>2013-08-10T09:09:30Z</time>
      </trkpt>
    </trkseg>
  </trk>
</gpx>